<?xml version='1.0' encoding='UTF-8'?><gpx version="1.1" creator="JPX - https://github.com/jenetics/jpx" xmlns="http://www.topografix.com/GPX/1/1"><trk><trkseg><trkpt lat="43.31143473087315" lon="10.523091012462478"><ele>18.0</ele><time>2026-04-22T16:03:20Z</time></trkpt><trkpt lat="43.311584942598905" lon="10.523101167990063"><ele>18.0</ele><time>2026-04-22T16:03:33Z</time></trkpt><trkpt lat="43.31168229530086" lon="10.523094918041279"><ele>18.0</ele><time>2026-04-22T16:03:36Z</time></trkpt><trkpt lat="43.311741291963344" lon="10.523056222689513"><ele>18.0</ele><time>2026-04-22T16:03:42Z</time></trkpt><trkpt lat="43.311807344168585" lon="10.523036690108313"><ele>18.0</ele><time>2026-04-22T16:03:48Z</time></trkpt><trkpt lat="43.31186724479522" lon="10.522959207370198"><ele>18.142857142857146</ele><time>2026-04-22T16:03:53Z</time></trkpt><trkpt lat="43.31191864849992" lon="10.522891894449565"><ele>18.285714285714285</ele><time>2026-04-22T16:03:57Z</time></trkpt><trkpt lat="43.31197358167997" lon="10.5228407596386"><ele>18.42857142857143</ele><time>2026-04-22T16:04:01Z</time></trkpt><trkpt lat="43.31203900873428" lon="10.522779596108002"><ele>18.571428571428573</ele><time>2026-04-22T16:04:05Z</time></trkpt><trkpt lat="43.31210269613316" lon="10.522760602596788"><ele>18.714285714285715</ele><time>2026-04-22T16:04:10Z</time></trkpt><trkpt lat="43.312165229178724" lon="10.522774079930207"><ele>18.857142857142858</ele><time>2026-04-22T16:04:13Z</time></trkpt><trkpt lat="43.31223485179264" lon="10.52275964957275"><ele>19.0</ele><time>2026-04-22T16:04:17Z</time></trkpt><trkpt lat="43.31229082655244" lon="10.522705142904979"><ele>19.142857142857142</ele><time>2026-04-22T16:04:21Z</time></trkpt><trkpt lat="43.31235462111464" lon="10.522634370975414"><ele>19.28571428571429</ele><time>2026-04-22T16:04:25Z</time></trkpt><trkpt lat="43.31240330916715" lon="10.522566252518653"><ele>19.42857142857143</ele><time>2026-04-22T16:04:31Z</time></trkpt><trkpt lat="43.312453338145914" lon="10.522506876981172"><ele>19.57142857142857</ele><time>2026-04-22T16:04:36Z</time></trkpt><trkpt lat="43.31251462990987" lon="10.522454438727268"><ele>19.714285714285715</ele><time>2026-04-22T16:04:41Z</time></trkpt><trkpt lat="43.31258164729322" lon="10.522443679501228"><ele>19.857142857142858</ele><time>2026-04-22T16:04:45Z</time></trkpt><trkpt lat="43.312637851037785" lon="10.522400611913435"><ele>20.0</ele><time>2026-04-22T16:04:50Z</time></trkpt><trkpt lat="43.31270651177283" lon="10.522357490308327"><ele>20.0</ele><time>2026-04-22T16:04:54Z</time></trkpt><trkpt lat="43.312784592637875" lon="10.522369740866544"><ele>20.0</ele><time>2026-04-22T16:04:59Z</time></trkpt><trkpt lat="43.31285872893466" lon="10.522361131661995"><ele>20.0</ele><time>2026-04-22T16:05:03Z</time></trkpt><trkpt lat="43.31292725592943" lon="10.522334584444014"><ele>20.0</ele><time>2026-04-22T16:05:07Z</time></trkpt><trkpt lat="43.312999201031616" lon="10.522283865594792"><ele>20.0</ele><time>2026-04-22T16:05:11Z</time></trkpt><trkpt lat="43.3130614411415" lon="10.5222462372754"><ele>20.0</ele><time>2026-04-22T16:05:14Z</time></trkpt><trkpt lat="43.31312406063322" lon="10.522200320950029"><ele>20.0</ele><time>2026-04-22T16:05:17Z</time></trkpt><trkpt lat="43.31318567834857" lon="10.522171433546154"><ele>19.857142857142858</ele><time>2026-04-22T16:05:20Z</time></trkpt><trkpt lat="43.313243863521485" lon="10.522134037089742"><ele>19.714285714285715</ele><time>2026-04-22T16:05:23Z</time></trkpt><trkpt lat="43.31328157716737" lon="10.522057105101448"><ele>19.57142857142857</ele><time>2026-04-22T16:05:26Z</time></trkpt><trkpt lat="43.31334808988656" lon="10.521990982477677"><ele>19.42857142857143</ele><time>2026-04-22T16:05:31Z</time></trkpt><trkpt lat="43.31340884923796" lon="10.521933392446112"><ele>19.28571428571429</ele><time>2026-04-22T16:05:36Z</time></trkpt><trkpt lat="43.313439858767225" lon="10.521837941167341"><ele>19.142857142857142</ele><time>2026-04-22T16:05:41Z</time></trkpt><trkpt lat="43.31348960698287" lon="10.52175372702434"><ele>19.0</ele><time>2026-04-22T16:05:46Z</time></trkpt><trkpt lat="43.31353363188925" lon="10.521673383184043"><ele>19.0</ele><time>2026-04-22T16:05:50Z</time></trkpt><trkpt lat="43.31356631967828" lon="10.521596837721845"><ele>19.0</ele><time>2026-04-22T16:05:53Z</time></trkpt><trkpt lat="43.31360927154553" lon="10.521504124459685"><ele>19.0</ele><time>2026-04-22T16:05:57Z</time></trkpt><trkpt lat="43.31363810005937" lon="10.521405237847723"><ele>19.0</ele><time>2026-04-22T16:06:01Z</time></trkpt><trkpt lat="43.3136611286443" lon="10.521305998949472"><ele>19.0</ele><time>2026-04-22T16:06:05Z</time></trkpt><trkpt lat="43.313701850697605" lon="10.52123506366349"><ele>19.0</ele><time>2026-04-22T16:06:08Z</time></trkpt><trkpt lat="43.31374906726148" lon="10.5211550638548"><ele>19.0</ele><time>2026-04-22T16:06:12Z</time></trkpt><trkpt lat="43.313802423786285" lon="10.521070926117178"><ele>19.0</ele><time>2026-04-22T16:06:16Z</time></trkpt><trkpt lat="43.31385016547017" lon="10.520998820718136"><ele>19.0</ele><time>2026-04-22T16:06:20Z</time></trkpt><trkpt lat="43.313914603022894" lon="10.52092921529007"><ele>19.0</ele><time>2026-04-22T16:06:27Z</time></trkpt><trkpt lat="43.3139788807333" lon="10.52089498344274"><ele>19.0</ele><time>2026-04-22T16:06:33Z</time></trkpt><trkpt lat="43.31403516609113" lon="10.520848438457943"><ele>19.0</ele><time>2026-04-22T16:06:37Z</time></trkpt><trkpt lat="43.31409850852906" lon="10.520817619811694"><ele>19.0</ele><time>2026-04-22T16:06:40Z</time></trkpt><trkpt lat="43.31422450248826" lon="10.520777028034042"><ele>18.666666666666664</ele><time>2026-04-22T16:06:49Z</time></trkpt><trkpt lat="43.314303437672876" lon="10.520746154754361"><ele>18.333333333333332</ele><time>2026-04-22T16:06:54Z</time></trkpt><trkpt lat="43.314368265316574" lon="10.52067142108859"><ele>18.0</ele><time>2026-04-22T16:06:59Z</time></trkpt><trkpt lat="43.314440120966324" lon="10.520673206045965"><ele>17.666666666666668</ele><time>2026-04-22T16:07:02Z</time></trkpt><trkpt lat="43.31451607357544" lon="10.520645637878346"><ele>17.333333333333336</ele><time>2026-04-22T16:07:06Z</time></trkpt><trkpt lat="43.314582165944" lon="10.520628227782305"><ele>17.0</ele><time>2026-04-22T16:07:10Z</time></trkpt><trkpt lat="43.31464794709674" lon="10.520616146976979"><ele>16.999999999999996</ele><time>2026-04-22T16:07:14Z</time></trkpt><trkpt lat="43.31471361180544" lon="10.520588404399144"><ele>17.0</ele><time>2026-04-22T16:07:19Z</time></trkpt><trkpt lat="43.31478871805093" lon="10.520612656634416"><ele>17.0</ele><time>2026-04-22T16:07:23Z</time></trkpt><trkpt lat="43.31485640681752" lon="10.520621672299857"><ele>17.0</ele><time>2026-04-22T16:07:27Z</time></trkpt><trkpt lat="43.31492253256992" lon="10.520633271173944"><ele>17.0</ele><time>2026-04-22T16:07:31Z</time></trkpt><trkpt lat="43.31499400210895" lon="10.520628205366869"><ele>16.999999999999996</ele><time>2026-04-22T16:07:35Z</time></trkpt><trkpt lat="43.31506379448322" lon="10.520629240951141"><ele>17.0</ele><time>2026-04-22T16:07:39Z</time></trkpt><trkpt lat="43.31512903202811" lon="10.520627209367872"><ele>16.71428571428571</ele><time>2026-04-22T16:07:43Z</time></trkpt><trkpt lat="43.31517643100263" lon="10.520565507625953"><ele>16.428571428571427</ele><time>2026-04-22T16:07:51Z</time></trkpt><trkpt lat="43.315215178036794" lon="10.520490085145235"><ele>16.142857142857142</ele><time>2026-04-22T16:07:55Z</time></trkpt><trkpt lat="43.31522703333966" lon="10.52039279652449"><ele>15.857142857142856</ele><time>2026-04-22T16:07:59Z</time></trkpt><trkpt lat="43.31522187123879" lon="10.520295368935116"><ele>15.57142857142857</ele><time>2026-04-22T16:08:03Z</time></trkpt><trkpt lat="43.315203859854186" lon="10.520192687087608"><ele>15.285714285714286</ele><time>2026-04-22T16:08:07Z</time></trkpt><trkpt lat="43.31517200189147" lon="10.520093737359131"><ele>15.0</ele><time>2026-04-22T16:08:12Z</time></trkpt><trkpt lat="43.31514721305244" lon="10.520003944931412"><ele>15.571428571428573</ele><time>2026-04-22T16:08:16Z</time></trkpt><trkpt lat="43.315114657529854" lon="10.51991251203469"><ele>16.142857142857142</ele><time>2026-04-22T16:08:21Z</time></trkpt><trkpt lat="43.31509049326423" lon="10.519829610711707"><ele>16.714285714285715</ele><time>2026-04-22T16:08:25Z</time></trkpt><trkpt lat="43.31506502640868" lon="10.519727279785764"><ele>17.285714285714285</ele><time>2026-04-22T16:08:29Z</time></trkpt><trkpt lat="43.31503853694048" lon="10.519637622684542"><ele>17.857142857142858</ele><time>2026-04-22T16:08:33Z</time></trkpt><trkpt lat="43.31502195323704" lon="10.519534863961407"><ele>18.428571428571427</ele><time>2026-04-22T16:08:38Z</time></trkpt><trkpt lat="43.31501668795863" lon="10.519436346795928"><ele>19.0</ele><time>2026-04-22T16:08:43Z</time></trkpt><trkpt lat="43.31495730398644" lon="10.51936148885166"><ele>19.0</ele><time>2026-04-22T16:08:47Z</time></trkpt><trkpt lat="43.31493483166221" lon="10.51925419371638"><ele>19.0</ele><time>2026-04-22T16:08:51Z</time></trkpt><trkpt lat="43.314912059315915" lon="10.519168992756397"><ele>19.0</ele><time>2026-04-22T16:08:55Z</time></trkpt><trkpt lat="43.31487961565243" lon="10.519067504098496"><ele>19.0</ele><time>2026-04-22T16:08:59Z</time></trkpt><trkpt lat="43.314856833687934" lon="10.518975718977813"><ele>19.0</ele><time>2026-04-22T16:09:03Z</time></trkpt><trkpt lat="43.31481368240477" lon="10.518885031087297"><ele>19.0</ele><time>2026-04-22T16:09:07Z</time></trkpt><trkpt lat="43.31478153326783" lon="10.518799921932175"><ele>19.0</ele><time>2026-04-22T16:09:11Z</time></trkpt><trkpt lat="43.31475730107396" lon="10.518697702203323"><ele>18.428571428571427</ele><time>2026-04-22T16:09:16Z</time></trkpt><trkpt lat="43.314723599748255" lon="10.518605423131877"><ele>17.857142857142858</ele><time>2026-04-22T16:09:20Z</time></trkpt><trkpt lat="43.31470772380536" lon="10.518502948162551"><ele>17.285714285714285</ele><time>2026-04-22T16:09:24Z</time></trkpt><trkpt lat="43.31467035540602" lon="10.518418525685137"><ele>16.714285714285715</ele><time>2026-04-22T16:09:28Z</time></trkpt><trkpt lat="43.31462632029311" lon="10.518331387773504"><ele>16.142857142857142</ele><time>2026-04-22T16:09:32Z</time></trkpt><trkpt lat="43.314611041714464" lon="10.518245947408642"><ele>15.571428571428573</ele><time>2026-04-22T16:09:36Z</time></trkpt><trkpt lat="43.31455663029514" lon="10.518162390811897"><ele>15.0</ele><time>2026-04-22T16:09:40Z</time></trkpt><trkpt lat="43.31451635194925" lon="10.518095316629386"><ele>15.0</ele><time>2026-04-22T16:09:43Z</time></trkpt><trkpt lat="43.31449816506938" lon="10.51801149128822"><ele>15.0</ele><time>2026-04-22T16:09:47Z</time></trkpt><trkpt lat="43.31447173200847" lon="10.517919128238068"><ele>15.0</ele><time>2026-04-22T16:09:51Z</time></trkpt><trkpt lat="43.314437654647406" lon="10.51782677855794"><ele>15.0</ele><time>2026-04-22T16:09:55Z</time></trkpt><trkpt lat="43.314391741834214" lon="10.517744174757649"><ele>15.0</ele><time>2026-04-22T16:10:00Z</time></trkpt><trkpt lat="43.314391200034635" lon="10.517642715176162"><ele>15.0</ele><time>2026-04-22T16:10:04Z</time></trkpt><trkpt lat="43.314365868353775" lon="10.517538308154723"><ele>15.0</ele><time>2026-04-22T16:10:08Z</time></trkpt><trkpt lat="43.314339181752985" lon="10.517443766176905"><ele>15.0</ele><time>2026-04-22T16:10:12Z</time></trkpt><trkpt lat="43.31431707792485" lon="10.517348326184024"><ele>15.0</ele><time>2026-04-22T16:10:17Z</time></trkpt><trkpt lat="43.31429078996861" lon="10.517249583481842"><ele>15.0</ele><time>2026-04-22T16:10:21Z</time></trkpt><trkpt lat="43.314266339462364" lon="10.517168576203487"><ele>15.0</ele><time>2026-04-22T16:10:24Z</time></trkpt><trkpt lat="43.31422273908387" lon="10.517082414491274"><ele>15.0</ele><time>2026-04-22T16:10:28Z</time></trkpt><trkpt lat="43.314195736556414" lon="10.517002059639932"><ele>15.0</ele><time>2026-04-22T16:10:32Z</time></trkpt><trkpt lat="43.31416474369002" lon="10.516912176454541"><ele>15.0</ele><time>2026-04-22T16:10:36Z</time></trkpt><trkpt lat="43.314138723698115" lon="10.516833329321585"><ele>15.0</ele><time>2026-04-22T16:10:40Z</time></trkpt><trkpt lat="43.31411339485177" lon="10.516750652416192"><ele>15.0</ele><time>2026-04-22T16:10:44Z</time></trkpt><trkpt lat="43.3140896304809" lon="10.516653051351188"><ele>15.0</ele><time>2026-04-22T16:10:49Z</time></trkpt><trkpt lat="43.314061915116106" lon="10.516567013708796"><ele>15.0</ele><time>2026-04-22T16:10:53Z</time></trkpt><trkpt lat="43.31403042421557" lon="10.51647546295314"><ele>15.0</ele><time>2026-04-22T16:10:57Z</time></trkpt><trkpt lat="43.314006499635546" lon="10.516390310957046"><ele>15.0</ele><time>2026-04-22T16:11:01Z</time></trkpt><trkpt lat="43.313973777319745" lon="10.516303202858865"><ele>15.0</ele><time>2026-04-22T16:11:05Z</time></trkpt><trkpt lat="43.31393299695218" lon="10.516225327154443"><ele>14.714285714285715</ele><time>2026-04-22T16:11:09Z</time></trkpt><trkpt lat="43.31389228276867" lon="10.516147677190919"><ele>14.428571428571427</ele><time>2026-04-22T16:11:13Z</time></trkpt><trkpt lat="43.313913058422855" lon="10.516052645602388"><ele>14.142857142857142</ele><time>2026-04-22T16:11:17Z</time></trkpt><trkpt lat="43.31396296775081" lon="10.515987622973421"><ele>13.857142857142858</ele><time>2026-04-22T16:11:21Z</time></trkpt><trkpt lat="43.31394082504054" lon="10.515896831352599"><ele>13.571428571428573</ele><time>2026-04-22T16:11:25Z</time></trkpt><trkpt lat="43.31391610578767" lon="10.515798155033645"><ele>13.285714285714285</ele><time>2026-04-22T16:11:29Z</time></trkpt><trkpt lat="43.31388170008638" lon="10.515708196417599"><ele>13.0</ele><time>2026-04-22T16:11:33Z</time></trkpt><trkpt lat="43.31386554880506" lon="10.515614692390832"><ele>13.0</ele><time>2026-04-22T16:11:37Z</time></trkpt><trkpt lat="43.313896851146374" lon="10.515518336991136"><ele>13.0</ele><time>2026-04-22T16:11:42Z</time></trkpt><trkpt lat="43.31391354849241" lon="10.515429132078747"><ele>13.0</ele><time>2026-04-22T16:11:46Z</time></trkpt><trkpt lat="43.31389370742799" lon="10.515335831969592"><ele>13.0</ele><time>2026-04-22T16:11:50Z</time></trkpt><trkpt lat="43.31393969917307" lon="10.515260145148877"><ele>13.0</ele><time>2026-04-22T16:11:54Z</time></trkpt><trkpt lat="43.31400140276756" lon="10.515217120070186"><ele>13.0</ele><time>2026-04-22T16:11:58Z</time></trkpt><trkpt lat="43.314058359661864" lon="10.515168751209368"><ele>13.0</ele><time>2026-04-22T16:12:02Z</time></trkpt><trkpt lat="43.314117821277485" lon="10.515130855578155"><ele>12.428571428571429</ele><time>2026-04-22T16:12:06Z</time></trkpt><trkpt lat="43.31417538074626" lon="10.515083011580515"><ele>11.857142857142858</ele><time>2026-04-22T16:12:10Z</time></trkpt><trkpt lat="43.31423528107424" lon="10.515034920957442"><ele>11.285714285714286</ele><time>2026-04-22T16:12:14Z</time></trkpt><trkpt lat="43.31429212649879" lon="10.514975377318574"><ele>10.714285714285715</ele><time>2026-04-22T16:12:18Z</time></trkpt><trkpt lat="43.31428628385645" lon="10.514880546149158"><ele>10.142857142857142</ele><time>2026-04-22T16:12:22Z</time></trkpt><trkpt lat="43.314332458328096" lon="10.514816670227155"><ele>9.571428571428573</ele><time>2026-04-22T16:12:26Z</time></trkpt><trkpt lat="43.31439707058462" lon="10.514782812080465"><ele>9.0</ele><time>2026-04-22T16:12:30Z</time></trkpt><trkpt lat="43.314456818019735" lon="10.514849672218284"><ele>9.000000000000002</ele><time>2026-04-22T16:12:35Z</time></trkpt><trkpt lat="43.31452149398838" lon="10.514861251923907"><ele>9.0</ele><time>2026-04-22T16:12:39Z</time></trkpt><trkpt lat="43.31457376606341" lon="10.514804716621283"><ele>9.0</ele><time>2026-04-22T16:12:43Z</time></trkpt><trkpt lat="43.3146207405915" lon="10.514746747343"><ele>9.0</ele><time>2026-04-22T16:12:48Z</time></trkpt><trkpt lat="43.31467536982355" lon="10.51468784857325"><ele>9.0</ele><time>2026-04-22T16:12:53Z</time></trkpt><trkpt lat="43.314736755602226" lon="10.514638278992173"><ele>9.000000000000002</ele><time>2026-04-22T16:12:59Z</time></trkpt><trkpt lat="43.31479366541179" lon="10.514594654475436"><ele>9.0</ele><time>2026-04-22T16:13:03Z</time></trkpt><trkpt lat="43.31485273745159" lon="10.514553210666048"><ele>8.428571428571429</ele><time>2026-04-22T16:13:07Z</time></trkpt><trkpt lat="43.31490884164931" lon="10.514502678312"><ele>7.857142857142858</ele><time>2026-04-22T16:13:11Z</time></trkpt><trkpt lat="43.314968588476816" lon="10.514452512824924"><ele>7.2857142857142865</ele><time>2026-04-22T16:13:15Z</time></trkpt><trkpt lat="43.31503106832538" lon="10.514405611086989"><ele>6.714285714285715</ele><time>2026-04-22T16:13:20Z</time></trkpt><trkpt lat="43.31508687676037" lon="10.514347603471073"><ele>6.142857142857143</ele><time>2026-04-22T16:13:25Z</time></trkpt><trkpt lat="43.3151436110251" lon="10.514289908892376"><ele>5.571428571428571</ele><time>2026-04-22T16:13:29Z</time></trkpt><trkpt lat="43.31519920859164" lon="10.514247794970244"><ele>5.0</ele><time>2026-04-22T16:13:32Z</time></trkpt><trkpt lat="43.31526371084498" lon="10.514206909973419"><ele>5.0</ele><time>2026-04-22T16:13:36Z</time></trkpt><trkpt lat="43.315326480731095" lon="10.514165864802296"><ele>5.0</ele><time>2026-04-22T16:13:40Z</time></trkpt><trkpt lat="43.31539040733955" lon="10.514113838420759"><ele>5.0</ele><time>2026-04-22T16:13:45Z</time></trkpt><trkpt lat="43.31544953702274" lon="10.514039459388014"><ele>5.0</ele><time>2026-04-22T16:13:49Z</time></trkpt><trkpt lat="43.315519427552964" lon="10.513976995452193"><ele>5.0</ele><time>2026-04-22T16:13:53Z</time></trkpt><trkpt lat="43.3155806948472" lon="10.51393304960378"><ele>5.0</ele><time>2026-04-22T16:13:58Z</time></trkpt><trkpt lat="43.31564405528265" lon="10.513876840998815"><ele>5.142857142857142</ele><time>2026-04-22T16:14:03Z</time></trkpt><trkpt lat="43.315711447751475" lon="10.513814598385515"><ele>5.285714285714286</ele><time>2026-04-22T16:14:07Z</time></trkpt><trkpt lat="43.315780852967286" lon="10.513793988879327"><ele>5.428571428571429</ele><time>2026-04-22T16:14:12Z</time></trkpt><trkpt lat="43.31584748071839" lon="10.513756076523485"><ele>5.571428571428571</ele><time>2026-04-22T16:14:16Z</time></trkpt><trkpt lat="43.31591774908191" lon="10.513718696565501"><ele>5.714285714285714</ele><time>2026-04-22T16:14:20Z</time></trkpt><trkpt lat="43.315982561578195" lon="10.51367583594348"><ele>5.857142857142857</ele><time>2026-04-22T16:14:24Z</time></trkpt><trkpt lat="43.31604474910656" lon="10.51364852794022"><ele>6.0</ele><time>2026-04-22T16:14:28Z</time></trkpt><trkpt lat="43.31610724332301" lon="10.513624393805552"><ele>5.7142857142857135</ele><time>2026-04-22T16:14:32Z</time></trkpt><trkpt lat="43.31617453354014" lon="10.513591867546761"><ele>5.428571428571429</ele><time>2026-04-22T16:14:36Z</time></trkpt><trkpt lat="43.316247548461035" lon="10.513563000246231"><ele>5.142857142857142</ele><time>2026-04-22T16:14:40Z</time></trkpt><trkpt lat="43.316315223446075" lon="10.513532666791143"><ele>4.857142857142857</ele><time>2026-04-22T16:14:44Z</time></trkpt><trkpt lat="43.316378046326165" lon="10.513506165153345"><ele>4.571428571428571</ele><time>2026-04-22T16:14:48Z</time></trkpt><trkpt lat="43.31644136619859" lon="10.513471182921906"><ele>4.285714285714286</ele><time>2026-04-22T16:14:52Z</time></trkpt><trkpt lat="43.316509000494385" lon="10.513456511592041"><ele>4.0</ele><time>2026-04-22T16:14:56Z</time></trkpt><trkpt lat="43.31657931395252" lon="10.513429820545378"><ele>3.8571428571428568</ele><time>2026-04-22T16:15:00Z</time></trkpt><trkpt lat="43.31664673806636" lon="10.513409871976945"><ele>3.714285714285714</ele><time>2026-04-22T16:15:04Z</time></trkpt><trkpt lat="43.31670936499878" lon="10.51339395516496"><ele>3.571428571428571</ele><time>2026-04-22T16:15:08Z</time></trkpt><trkpt lat="43.316776874289474" lon="10.513369033798048"><ele>3.4285714285714284</ele><time>2026-04-22T16:15:12Z</time></trkpt><trkpt lat="43.316843178029586" lon="10.513330147148723"><ele>3.2857142857142856</ele><time>2026-04-22T16:15:16Z</time></trkpt><trkpt lat="43.31691673107842" lon="10.513301108306749"><ele>3.1428571428571423</ele><time>2026-04-22T16:15:20Z</time></trkpt><trkpt lat="43.3169813786288" lon="10.51327482599034"><ele>3.0</ele><time>2026-04-22T16:15:24Z</time></trkpt><trkpt lat="43.31704251227263" lon="10.513245280335182"><ele>2.9999999999999996</ele><time>2026-04-22T16:15:28Z</time></trkpt><trkpt lat="43.31710789375178" lon="10.513218071409407"><ele>3.0</ele><time>2026-04-22T16:15:32Z</time></trkpt><trkpt lat="43.317169861024624" lon="10.513191537673436"><ele>3.0</ele><time>2026-04-22T16:15:36Z</time></trkpt><trkpt lat="43.31723690915245" lon="10.513164094622464"><ele>3.0</ele><time>2026-04-22T16:15:40Z</time></trkpt><trkpt lat="43.31730620494496" lon="10.51314473369354"><ele>3.0</ele><time>2026-04-22T16:15:44Z</time></trkpt><trkpt lat="43.317373700029385" lon="10.513118402949782"><ele>2.9999999999999996</ele><time>2026-04-22T16:15:48Z</time></trkpt><trkpt lat="43.31744145660137" lon="10.513093202180468"><ele>3.0</ele><time>2026-04-22T16:15:52Z</time></trkpt><trkpt lat="43.31749976931013" lon="10.513059093142122"><ele>2.8571428571428568</ele><time>2026-04-22T16:15:56Z</time></trkpt><trkpt lat="43.31756838456448" lon="10.513038665341737"><ele>2.7142857142857144</ele><time>2026-04-22T16:16:00Z</time></trkpt><trkpt lat="43.31762988691373" lon="10.51300664312786"><ele>2.571428571428571</ele><time>2026-04-22T16:16:04Z</time></trkpt><trkpt lat="43.317693261767445" lon="10.512980767683507"><ele>2.4285714285714284</ele><time>2026-04-22T16:16:08Z</time></trkpt><trkpt lat="43.31775778455471" lon="10.512959834773998"><ele>2.2857142857142856</ele><time>2026-04-22T16:16:12Z</time></trkpt><trkpt lat="43.317823128032195" lon="10.51293873072636"><ele>2.142857142857143</ele><time>2026-04-22T16:16:16Z</time></trkpt><trkpt lat="43.31789142311542" lon="10.512918292939107"><ele>2.0</ele><time>2026-04-22T16:16:20Z</time></trkpt><trkpt lat="43.317964794327786" lon="10.512894434832727"><ele>1.857142857142857</ele><time>2026-04-22T16:16:24Z</time></trkpt><trkpt lat="43.31803586237479" lon="10.51286967709789"><ele>1.714285714285714</ele><time>2026-04-22T16:16:28Z</time></trkpt><trkpt lat="43.31810143392858" lon="10.512840597783345"><ele>1.5714285714285714</ele><time>2026-04-22T16:16:32Z</time></trkpt><trkpt lat="43.318169162392124" lon="10.512816698203588"><ele>1.4285714285714284</ele><time>2026-04-22T16:16:36Z</time></trkpt><trkpt lat="43.31823923820016" lon="10.512790688170913"><ele>1.2857142857142856</ele><time>2026-04-22T16:16:40Z</time></trkpt><trkpt lat="43.31831209223368" lon="10.512771125452566"><ele>1.1428571428571428</ele><time>2026-04-22T16:16:44Z</time></trkpt><trkpt lat="43.31838221700593" lon="10.512744601468356"><ele>1.0</ele><time>2026-04-22T16:16:48Z</time></trkpt><trkpt lat="43.318445922850515" lon="10.512713203310447"><ele>1.5714285714285714</ele><time>2026-04-22T16:16:52Z</time></trkpt><trkpt lat="43.318516665827254" lon="10.51268417770943"><ele>2.142857142857143</ele><time>2026-04-22T16:16:57Z</time></trkpt><trkpt lat="43.31858369016315" lon="10.51268138074171"><ele>2.7142857142857144</ele><time>2026-04-22T16:17:02Z</time></trkpt><trkpt lat="43.31865018314014" lon="10.512646329914785"><ele>3.2857142857142856</ele><time>2026-04-22T16:17:07Z</time></trkpt><trkpt lat="43.318715634697305" lon="10.5126179057006"><ele>3.857142857142857</ele><time>2026-04-22T16:17:11Z</time></trkpt><trkpt lat="43.318779993708844" lon="10.51258165363586"><ele>4.428571428571429</ele><time>2026-04-22T16:17:15Z</time></trkpt><trkpt lat="43.31884350309925" lon="10.512543547609111"><ele>5.0</ele><time>2026-04-22T16:17:19Z</time></trkpt><trkpt lat="43.318905818105065" lon="10.51250241987766"><ele>5.142857142857142</ele><time>2026-04-22T16:17:23Z</time></trkpt><trkpt lat="43.31897166223495" lon="10.512466508081078"><ele>5.285714285714286</ele><time>2026-04-22T16:17:27Z</time></trkpt><trkpt lat="43.31903326227224" lon="10.512422217959278"><ele>5.428571428571429</ele><time>2026-04-22T16:17:31Z</time></trkpt><trkpt lat="43.31909724363699" lon="10.512387571707462"><ele>5.571428571428571</ele><time>2026-04-22T16:17:35Z</time></trkpt><trkpt lat="43.31915772517767" lon="10.5123392925476"><ele>5.714285714285714</ele><time>2026-04-22T16:17:39Z</time></trkpt><trkpt lat="43.31922086678811" lon="10.512301009747805"><ele>5.857142857142857</ele><time>2026-04-22T16:17:43Z</time></trkpt><trkpt lat="43.31928115311118" lon="10.512263803671772"><ele>6.0</ele><time>2026-04-22T16:17:47Z</time></trkpt><trkpt lat="43.31934588195221" lon="10.5122246034796"><ele>5.999999999999999</ele><time>2026-04-22T16:17:51Z</time></trkpt><trkpt lat="43.31941379732662" lon="10.512181428892648"><ele>6.0</ele><time>2026-04-22T16:17:55Z</time></trkpt><trkpt lat="43.31947741035062" lon="10.512139217748029"><ele>6.0</ele><time>2026-04-22T16:17:59Z</time></trkpt><trkpt lat="43.319541787269" lon="10.512098633029858"><ele>6.0</ele><time>2026-04-22T16:18:03Z</time></trkpt><trkpt lat="43.31960910459064" lon="10.51205511535898"><ele>6.0</ele><time>2026-04-22T16:18:07Z</time></trkpt><trkpt lat="43.31967531409945" lon="10.51201450149358"><ele>5.999999999999999</ele><time>2026-04-22T16:18:11Z</time></trkpt><trkpt lat="43.319738258700205" lon="10.51197189563129"><ele>6.0</ele><time>2026-04-22T16:18:15Z</time></trkpt><trkpt lat="43.31980124622868" lon="10.511936356698499"><ele>5.857142857142857</ele><time>2026-04-22T16:18:19Z</time></trkpt><trkpt lat="43.3198590974963" lon="10.511889839870653"><ele>5.714285714285714</ele><time>2026-04-22T16:18:23Z</time></trkpt><trkpt lat="43.31992597625498" lon="10.511855853526436"><ele>5.571428571428571</ele><time>2026-04-22T16:18:27Z</time></trkpt><trkpt lat="43.31999030112474" lon="10.511814503227816"><ele>5.428571428571429</ele><time>2026-04-22T16:18:31Z</time></trkpt><trkpt lat="43.320051678278425" lon="10.511776666358184"><ele>5.285714285714286</ele><time>2026-04-22T16:18:35Z</time></trkpt><trkpt lat="43.320113473936445" lon="10.511737463787222"><ele>5.142857142857142</ele><time>2026-04-22T16:18:39Z</time></trkpt><trkpt lat="43.32017781040596" lon="10.511698203043048"><ele>5.0</ele><time>2026-04-22T16:18:43Z</time></trkpt><trkpt lat="43.32024287634361" lon="10.511658164504345"><ele>5.0</ele><time>2026-04-22T16:18:47Z</time></trkpt><trkpt lat="43.32030022063051" lon="10.51161089847288"><ele>5.0</ele><time>2026-04-22T16:18:51Z</time></trkpt><trkpt lat="43.3203665380264" lon="10.511575864013471"><ele>5.0</ele><time>2026-04-22T16:18:55Z</time></trkpt><trkpt lat="43.32042298417556" lon="10.511528510158525"><ele>5.0</ele><time>2026-04-22T16:18:59Z</time></trkpt><trkpt lat="43.32048847609401" lon="10.511494076446661"><ele>5.0</ele><time>2026-04-22T16:19:03Z</time></trkpt><trkpt lat="43.32055210052964" lon="10.511453951545617"><ele>5.0</ele><time>2026-04-22T16:19:07Z</time></trkpt><trkpt lat="43.32061304387964" lon="10.511415202267491"><ele>5.0</ele><time>2026-04-22T16:19:11Z</time></trkpt><trkpt lat="43.3206701275536" lon="10.511376770309354"><ele>5.0</ele><time>2026-04-22T16:19:15Z</time></trkpt><trkpt lat="43.32073228456883" lon="10.511341524264308"><ele>5.0</ele><time>2026-04-22T16:19:19Z</time></trkpt><trkpt lat="43.32079466669839" lon="10.51130441783316"><ele>5.0</ele><time>2026-04-22T16:19:23Z</time></trkpt><trkpt lat="43.32085699465026" lon="10.511266528648774"><ele>5.0</ele><time>2026-04-22T16:19:27Z</time></trkpt><trkpt lat="43.32091861785798" lon="10.511226208957948"><ele>5.0</ele><time>2026-04-22T16:19:31Z</time></trkpt><trkpt lat="43.320977898203715" lon="10.511189876790604"><ele>5.0</ele><time>2026-04-22T16:19:35Z</time></trkpt><trkpt lat="43.321043148272366" lon="10.511157532401976"><ele>5.0</ele><time>2026-04-22T16:19:39Z</time></trkpt><trkpt lat="43.32110566685978" lon="10.51112058286399"><ele>5.0</ele><time>2026-04-22T16:19:43Z</time></trkpt><trkpt lat="43.32117386710262" lon="10.511083875036773"><ele>5.0</ele><time>2026-04-22T16:19:47Z</time></trkpt><trkpt lat="43.3212387058501" lon="10.511040429869427"><ele>5.0</ele><time>2026-04-22T16:19:51Z</time></trkpt><trkpt lat="43.32130212953567" lon="10.51099964876825"><ele>5.0</ele><time>2026-04-22T16:19:55Z</time></trkpt><trkpt lat="43.32136575609529" lon="10.510959452957971"><ele>5.0</ele><time>2026-04-22T16:19:59Z</time></trkpt><trkpt lat="43.321431318403306" lon="10.51091753978405"><ele>5.0</ele><time>2026-04-22T16:20:03Z</time></trkpt><trkpt lat="43.32149443192295" lon="10.510875943049678"><ele>5.0</ele><time>2026-04-22T16:20:07Z</time></trkpt><trkpt lat="43.32155867455463" lon="10.510838907539222"><ele>4.714285714285714</ele><time>2026-04-22T16:20:11Z</time></trkpt><trkpt lat="43.32162012557755" lon="10.510798892769557"><ele>4.428571428571429</ele><time>2026-04-22T16:20:15Z</time></trkpt><trkpt lat="43.321682660080896" lon="10.510759184243087"><ele>4.142857142857142</ele><time>2026-04-22T16:20:19Z</time></trkpt><trkpt lat="43.321744928564" lon="10.510717467734974"><ele>3.8571428571428568</ele><time>2026-04-22T16:20:23Z</time></trkpt><trkpt lat="43.32180848397263" lon="10.510679529603097"><ele>3.571428571428571</ele><time>2026-04-22T16:20:27Z</time></trkpt><trkpt lat="43.321873280968525" lon="10.510642290068722"><ele>3.2857142857142856</ele><time>2026-04-22T16:20:31Z</time></trkpt><trkpt lat="43.32193417221524" lon="10.510599438012727"><ele>3.0</ele><time>2026-04-22T16:20:35Z</time></trkpt><trkpt lat="43.32199705560506" lon="10.510563618608987"><ele>2.9999999999999996</ele><time>2026-04-22T16:20:39Z</time></trkpt><trkpt lat="43.32205915444701" lon="10.510525195213308"><ele>3.0</ele><time>2026-04-22T16:20:43Z</time></trkpt><trkpt lat="43.32212089703503" lon="10.51048357806698"><ele>3.0</ele><time>2026-04-22T16:20:47Z</time></trkpt><trkpt lat="43.322183158123835" lon="10.510443849735923"><ele>3.0</ele><time>2026-04-22T16:20:51Z</time></trkpt><trkpt lat="43.32224648942469" lon="10.510405027193771"><ele>3.0</ele><time>2026-04-22T16:20:55Z</time></trkpt><trkpt lat="43.322307730274936" lon="10.510365946140869"><ele>2.9999999999999996</ele><time>2026-04-22T16:20:59Z</time></trkpt><trkpt lat="43.322370254410146" lon="10.510329513208818"><ele>3.0</ele><time>2026-04-22T16:21:03Z</time></trkpt><trkpt lat="43.3224331278877" lon="10.510291850971907"><ele>3.2857142857142856</ele><time>2026-04-22T16:21:07Z</time></trkpt><trkpt lat="43.32249651477581" lon="10.510252891367912"><ele>3.571428571428571</ele><time>2026-04-22T16:21:11Z</time></trkpt><trkpt lat="43.32256046145702" lon="10.510215895211209"><ele>3.8571428571428568</ele><time>2026-04-22T16:21:15Z</time></trkpt><trkpt lat="43.32261686975845" lon="10.510172181034548"><ele>4.142857142857142</ele><time>2026-04-22T16:21:19Z</time></trkpt><trkpt lat="43.322680882455735" lon="10.510144412840914"><ele>4.428571428571429</ele><time>2026-04-22T16:21:23Z</time></trkpt><trkpt lat="43.322740582001515" lon="10.510106873070328"><ele>4.714285714285714</ele><time>2026-04-22T16:21:27Z</time></trkpt><trkpt lat="43.32280157795962" lon="10.510070527302803"><ele>5.0</ele><time>2026-04-22T16:21:31Z</time></trkpt><trkpt lat="43.32287357917116" lon="10.510028298683865"><ele>5.0</ele><time>2026-04-22T16:21:36Z</time></trkpt><trkpt lat="43.322924142157916" lon="10.509975191570408"><ele>5.0</ele><time>2026-04-22T16:21:40Z</time></trkpt><trkpt lat="43.32295296294237" lon="10.509890765312761"><ele>5.0</ele><time>2026-04-22T16:21:45Z</time></trkpt><trkpt lat="43.322955943766566" lon="10.509799992125206"><ele>5.0</ele><time>2026-04-22T16:21:50Z</time></trkpt><trkpt lat="43.322943394317925" lon="10.509694963241826"><ele>5.0</ele><time>2026-04-22T16:21:55Z</time></trkpt><trkpt lat="43.32293266230785" lon="10.50960844383938"><ele>5.0</ele><time>2026-04-22T16:21:59Z</time></trkpt><trkpt lat="43.322929067534105" lon="10.509518619996834"><ele>5.0</ele><time>2026-04-22T16:22:03Z</time></trkpt><trkpt lat="43.32294240016852" lon="10.509426911745567"><ele>5.0</ele><time>2026-04-22T16:22:07Z</time></trkpt><trkpt lat="43.32297075670274" lon="10.509330191513417"><ele>5.0</ele><time>2026-04-22T16:22:11Z</time></trkpt><trkpt lat="43.32300489165144" lon="10.509235524023381"><ele>5.0</ele><time>2026-04-22T16:22:15Z</time></trkpt><trkpt lat="43.32304595978053" lon="10.509153173376957"><ele>5.0</ele><time>2026-04-22T16:22:19Z</time></trkpt><trkpt lat="43.32309109946222" lon="10.509080323771624"><ele>5.0</ele><time>2026-04-22T16:22:23Z</time></trkpt><trkpt lat="43.323139154994685" lon="10.509009812233757"><ele>5.0</ele><time>2026-04-22T16:22:27Z</time></trkpt><trkpt lat="43.323183671898256" lon="10.508938951930066"><ele>5.0</ele><time>2026-04-22T16:22:31Z</time></trkpt><trkpt lat="43.32322286034563" lon="10.508868903561195"><ele>5.0</ele><time>2026-04-22T16:22:35Z</time></trkpt><trkpt lat="43.32325930845514" lon="10.508790029255852"><ele>5.0</ele><time>2026-04-22T16:22:39Z</time></trkpt><trkpt lat="43.323286345674695" lon="10.508706639075344"><ele>5.0</ele><time>2026-04-22T16:22:43Z</time></trkpt><trkpt lat="43.323284697985855" lon="10.50860035032712"><ele>5.0</ele><time>2026-04-22T16:22:48Z</time></trkpt><trkpt lat="43.32328666121621" lon="10.508509892670158"><ele>5.0</ele><time>2026-04-22T16:22:52Z</time></trkpt><trkpt lat="43.323272548262935" lon="10.508410604459405"><ele>5.0</ele><time>2026-04-22T16:22:57Z</time></trkpt><trkpt lat="43.32324394084057" lon="10.508324571452425"><ele>5.0</ele><time>2026-04-22T16:23:02Z</time></trkpt><trkpt lat="43.323231939081296" lon="10.508237448731846"><ele>5.0</ele><time>2026-04-22T16:23:06Z</time></trkpt><trkpt lat="43.32320562045142" lon="10.508152040967156"><ele>5.0</ele><time>2026-04-22T16:23:11Z</time></trkpt><trkpt lat="43.32317061524578" lon="10.508074547598012"><ele>5.0</ele><time>2026-04-22T16:23:15Z</time></trkpt><trkpt lat="43.323137715780454" lon="10.507984849135884"><ele>5.0</ele><time>2026-04-22T16:23:19Z</time></trkpt><trkpt lat="43.3231017206965" lon="10.507901398657717"><ele>5.0</ele><time>2026-04-22T16:23:23Z</time></trkpt><trkpt lat="43.32306018627224" lon="10.50782511557822"><ele>5.0</ele><time>2026-04-22T16:23:27Z</time></trkpt><trkpt lat="43.3230217745559" lon="10.507749469396115"><ele>5.0</ele><time>2026-04-22T16:23:31Z</time></trkpt><trkpt lat="43.32298345069069" lon="10.507669859823082"><ele>5.0</ele><time>2026-04-22T16:23:35Z</time></trkpt><trkpt lat="43.32294556290168" lon="10.507593941218902"><ele>5.0</ele><time>2026-04-22T16:23:39Z</time></trkpt><trkpt lat="43.322916655478586" lon="10.507508929740723"><ele>5.0</ele><time>2026-04-22T16:23:43Z</time></trkpt><trkpt lat="43.32287176378657" lon="10.507427433955305"><ele>5.0</ele><time>2026-04-22T16:23:47Z</time></trkpt><trkpt lat="43.32283387495032" lon="10.507349779228608"><ele>5.0</ele><time>2026-04-22T16:23:51Z</time></trkpt><trkpt lat="43.32279374354274" lon="10.50726741611992"><ele>5.0</ele><time>2026-04-22T16:23:55Z</time></trkpt><trkpt lat="43.322753374367274" lon="10.50718350568325"><ele>5.0</ele><time>2026-04-22T16:23:59Z</time></trkpt><trkpt lat="43.3227129698923" lon="10.507103826247127"><ele>5.0</ele><time>2026-04-22T16:24:03Z</time></trkpt><trkpt lat="43.32267074684463" lon="10.50702690874271"><ele>5.0</ele><time>2026-04-22T16:24:07Z</time></trkpt><trkpt lat="43.322632575059174" lon="10.506946517775656"><ele>5.0</ele><time>2026-04-22T16:24:11Z</time></trkpt><trkpt lat="43.32259268400739" lon="10.506867016329155"><ele>5.0</ele><time>2026-04-22T16:24:15Z</time></trkpt><trkpt lat="43.32255588114662" lon="10.506784215708418"><ele>5.0</ele><time>2026-04-22T16:24:19Z</time></trkpt><trkpt lat="43.32251709317324" lon="10.506710507022047"><ele>5.0</ele><time>2026-04-22T16:24:23Z</time></trkpt><trkpt lat="43.32246709223931" lon="10.506630568621128"><ele>5.0</ele><time>2026-04-22T16:24:28Z</time></trkpt><trkpt lat="43.322417399908026" lon="10.506547041961994"><ele>5.0</ele><time>2026-04-22T16:24:33Z</time></trkpt><trkpt lat="43.322385053143805" lon="10.506470889347096"><ele>5.0</ele><time>2026-04-22T16:24:37Z</time></trkpt><trkpt lat="43.32234574587804" lon="10.506399273311382"><ele>5.0</ele><time>2026-04-22T16:24:41Z</time></trkpt><trkpt lat="43.32230572103454" lon="10.506325635655728"><ele>5.0</ele><time>2026-04-22T16:24:45Z</time></trkpt><trkpt lat="43.322271136912626" lon="10.506245206908835"><ele>5.0</ele><time>2026-04-22T16:24:49Z</time></trkpt><trkpt lat="43.32223233512897" lon="10.506168175509266"><ele>5.0</ele><time>2026-04-22T16:24:53Z</time></trkpt><trkpt lat="43.32219381705767" lon="10.506087106722322"><ele>5.0</ele><time>2026-04-22T16:24:57Z</time></trkpt><trkpt lat="43.32215629018688" lon="10.506011558292956"><ele>4.857142857142857</ele><time>2026-04-22T16:25:01Z</time></trkpt><trkpt lat="43.32211614267809" lon="10.505943817409747"><ele>4.714285714285714</ele><time>2026-04-22T16:25:05Z</time></trkpt><trkpt lat="43.32207286641077" lon="10.505870841204592"><ele>4.571428571428571</ele><time>2026-04-22T16:25:09Z</time></trkpt><trkpt lat="43.32203296373393" lon="10.505788894994955"><ele>4.428571428571429</ele><time>2026-04-22T16:25:13Z</time></trkpt><trkpt lat="43.32199650595143" lon="10.505715659674015"><ele>4.285714285714286</ele><time>2026-04-22T16:25:17Z</time></trkpt><trkpt lat="43.32196194432367" lon="10.50561512501356"><ele>4.142857142857142</ele><time>2026-04-22T16:25:23Z</time></trkpt><trkpt lat="43.32191548131652" lon="10.505536187528804"><ele>4.0</ele><time>2026-04-22T16:25:27Z</time></trkpt><trkpt lat="43.32187563873503" lon="10.505463803822558"><ele>4.0</ele><time>2026-04-22T16:25:31Z</time></trkpt><trkpt lat="43.321832831759416" lon="10.505382801261918"><ele>3.9999999999999996</ele><time>2026-04-22T16:25:35Z</time></trkpt><trkpt lat="43.321790463622456" lon="10.50530227178996"><ele>4.0</ele><time>2026-04-22T16:25:39Z</time></trkpt><trkpt lat="43.321744050829615" lon="10.505226542457104"><ele>4.0</ele><time>2026-04-22T16:25:43Z</time></trkpt><trkpt lat="43.32169600446251" lon="10.505149898635036"><ele>3.9999999999999996</ele><time>2026-04-22T16:25:47Z</time></trkpt><trkpt lat="43.32164849945834" lon="10.505077888523372"><ele>4.0</ele><time>2026-04-22T16:25:51Z</time></trkpt><trkpt lat="43.32160380907547" lon="10.504997885735001"><ele>4.0</ele><time>2026-04-22T16:25:55Z</time></trkpt><trkpt lat="43.32156009134944" lon="10.50491758849454"><ele>4.0</ele><time>2026-04-22T16:25:59Z</time></trkpt><trkpt lat="43.32151508149761" lon="10.504836257339564"><ele>3.9999999999999996</ele><time>2026-04-22T16:26:03Z</time></trkpt><trkpt lat="43.32147476451706" lon="10.50475878394952"><ele>4.0</ele><time>2026-04-22T16:26:07Z</time></trkpt><trkpt lat="43.32143238255721" lon="10.504683245928515"><ele>4.0</ele><time>2026-04-22T16:26:11Z</time></trkpt><trkpt lat="43.321393115380715" lon="10.504601380458116"><ele>3.9999999999999996</ele><time>2026-04-22T16:26:15Z</time></trkpt><trkpt lat="43.3213517977918" lon="10.504523968402093"><ele>4.0</ele><time>2026-04-22T16:26:19Z</time></trkpt><trkpt lat="43.32131229261174" lon="10.504438923396256"><ele>4.0</ele><time>2026-04-22T16:26:24Z</time></trkpt><trkpt lat="43.32127895720322" lon="10.504337166299536"><ele>3.714285714285714</ele><time>2026-04-22T16:26:29Z</time></trkpt><trkpt lat="43.32123200300245" lon="10.504245889351752"><ele>3.428571428571428</ele><time>2026-04-22T16:26:33Z</time></trkpt><trkpt lat="43.3211869516838" lon="10.504176976676142"><ele>3.142857142857143</ele><time>2026-04-22T16:26:37Z</time></trkpt><trkpt lat="43.32114612365682" lon="10.504099897552818"><ele>2.8571428571428568</ele><time>2026-04-22T16:26:41Z</time></trkpt><trkpt lat="43.32110342164273" lon="10.504018167685023"><ele>2.571428571428571</ele><time>2026-04-22T16:26:45Z</time></trkpt><trkpt lat="43.321064452647015" lon="10.503933058745975"><ele>2.2857142857142856</ele><time>2026-04-22T16:26:49Z</time></trkpt><trkpt lat="43.32102397272424" lon="10.50385149373951"><ele>2.0</ele><time>2026-04-22T16:26:53Z</time></trkpt><trkpt lat="43.32098495425818" lon="10.503765152410063"><ele>2.142857142857143</ele><time>2026-04-22T16:26:57Z</time></trkpt><trkpt lat="43.32094806913594" lon="10.503681549519273"><ele>2.2857142857142856</ele><time>2026-04-22T16:27:01Z</time></trkpt><trkpt lat="43.320914090582086" lon="10.503597259837413"><ele>2.4285714285714284</ele><time>2026-04-22T16:27:05Z</time></trkpt><trkpt lat="43.32086900246221" lon="10.503525418692613"><ele>2.571428571428571</ele><time>2026-04-22T16:27:09Z</time></trkpt><trkpt lat="43.32082503483254" lon="10.503455316455858"><ele>2.7142857142857144</ele><time>2026-04-22T16:27:13Z</time></trkpt><trkpt lat="43.3207856259053" lon="10.503386328421293"><ele>2.8571428571428568</ele><time>2026-04-22T16:27:17Z</time></trkpt><trkpt lat="43.320735108448794" lon="10.503307260753726"><ele>3.0</ele><time>2026-04-22T16:27:22Z</time></trkpt><trkpt lat="43.32069574920602" lon="10.503235331503125"><ele>2.9999999999999996</ele><time>2026-04-22T16:27:26Z</time></trkpt><trkpt lat="43.320656304411386" lon="10.503161928703532"><ele>3.0</ele><time>2026-04-22T16:27:30Z</time></trkpt><trkpt lat="43.3206146450522" lon="10.503086530346025"><ele>3.0</ele><time>2026-04-22T16:27:34Z</time></trkpt><trkpt lat="43.320575979804964" lon="10.503009357610583"><ele>3.0</ele><time>2026-04-22T16:27:38Z</time></trkpt><trkpt lat="43.32054141919169" lon="10.50293367110575"><ele>3.0</ele><time>2026-04-22T16:27:42Z</time></trkpt><trkpt lat="43.320500227502386" lon="10.502856124769377"><ele>2.9999999999999996</ele><time>2026-04-22T16:27:46Z</time></trkpt><trkpt lat="43.32046175067704" lon="10.502776227764798"><ele>3.0</ele><time>2026-04-22T16:27:50Z</time></trkpt><trkpt lat="43.32042077694494" lon="10.502699748523046"><ele>3.1428571428571423</ele><time>2026-04-22T16:27:54Z</time></trkpt><trkpt lat="43.32038095364079" lon="10.50262226100199"><ele>3.2857142857142856</ele><time>2026-04-22T16:27:58Z</time></trkpt><trkpt lat="43.32034049352078" lon="10.50254682078452"><ele>3.4285714285714284</ele><time>2026-04-22T16:28:02Z</time></trkpt><trkpt lat="43.32030281267448" lon="10.502467992441455"><ele>3.571428571428571</ele><time>2026-04-22T16:28:06Z</time></trkpt><trkpt lat="43.32026182245498" lon="10.502395094820097"><ele>3.714285714285714</ele><time>2026-04-22T16:28:10Z</time></trkpt><trkpt lat="43.32022284471967" lon="10.502317011999429"><ele>3.8571428571428568</ele><time>2026-04-22T16:28:14Z</time></trkpt><trkpt lat="43.32018152759106" lon="10.502239323546524"><ele>4.0</ele><time>2026-04-22T16:28:18Z</time></trkpt><trkpt lat="43.32014273928984" lon="10.502160312611272"><ele>4.0</ele><time>2026-04-22T16:28:22Z</time></trkpt><trkpt lat="43.320103669845565" lon="10.502085147388483"><ele>3.9999999999999996</ele><time>2026-04-22T16:28:26Z</time></trkpt><trkpt lat="43.320065112453754" lon="10.5020083963943"><ele>4.0</ele><time>2026-04-22T16:28:30Z</time></trkpt><trkpt lat="43.320028577542125" lon="10.50193720932119"><ele>4.0</ele><time>2026-04-22T16:28:34Z</time></trkpt><trkpt lat="43.31999292636516" lon="10.501862774684806"><ele>3.9999999999999996</ele><time>2026-04-22T16:28:38Z</time></trkpt><trkpt lat="43.319950116955006" lon="10.501781416870935"><ele>4.0</ele><time>2026-04-22T16:28:42Z</time></trkpt><trkpt lat="43.31990616764461" lon="10.5016990916933"><ele>4.0</ele><time>2026-04-22T16:28:46Z</time></trkpt><trkpt lat="43.319866039776535" lon="10.501621402624055"><ele>4.142857142857142</ele><time>2026-04-22T16:28:50Z</time></trkpt><trkpt lat="43.31982795956804" lon="10.501550937985668"><ele>4.285714285714286</ele><time>2026-04-22T16:28:54Z</time></trkpt><trkpt lat="43.31977878358151" lon="10.501478341724575"><ele>4.428571428571429</ele><time>2026-04-22T16:28:59Z</time></trkpt><trkpt lat="43.31973145543245" lon="10.501397346490524"><ele>4.571428571428571</ele><time>2026-04-22T16:29:04Z</time></trkpt><trkpt lat="43.31969184205201" lon="10.501301754535168"><ele>4.714285714285714</ele><time>2026-04-22T16:29:09Z</time></trkpt><trkpt lat="43.31964833277105" lon="10.501228310333328"><ele>4.857142857142857</ele><time>2026-04-22T16:29:13Z</time></trkpt><trkpt lat="43.319612967461886" lon="10.50115146216147"><ele>5.0</ele><time>2026-04-22T16:29:17Z</time></trkpt><trkpt lat="43.31957071617274" lon="10.501085063693324"><ele>4.571428571428571</ele><time>2026-04-22T16:29:21Z</time></trkpt><trkpt lat="43.31952948119949" lon="10.501011660330251"><ele>4.142857142857143</ele><time>2026-04-22T16:29:25Z</time></trkpt><trkpt lat="43.319489022595626" lon="10.500935214277654"><ele>3.7142857142857144</ele><time>2026-04-22T16:29:29Z</time></trkpt><trkpt lat="43.31946106228941" lon="10.500853010604013"><ele>3.2857142857142856</ele><time>2026-04-22T16:29:33Z</time></trkpt><trkpt lat="43.319428285741964" lon="10.500769692126967"><ele>2.8571428571428568</ele><time>2026-04-22T16:29:37Z</time></trkpt><trkpt lat="43.31938561867821" lon="10.500694260845265"><ele>2.4285714285714284</ele><time>2026-04-22T16:29:41Z</time></trkpt><trkpt lat="43.319341529742616" lon="10.500628161954438"><ele>2.0</ele><time>2026-04-22T16:29:45Z</time></trkpt><trkpt lat="43.31929810392928" lon="10.500556768606854"><ele>2.0</ele><time>2026-04-22T16:29:49Z</time></trkpt><trkpt lat="43.319259572186304" lon="10.500475139014226"><ele>1.9999999999999998</ele><time>2026-04-22T16:29:53Z</time></trkpt><trkpt lat="43.31922041343295" lon="10.500401797959602"><ele>2.0</ele><time>2026-04-22T16:29:57Z</time></trkpt><trkpt lat="43.319180362855285" lon="10.5003298938733"><ele>2.0</ele><time>2026-04-22T16:30:01Z</time></trkpt><trkpt lat="43.31913953077275" lon="10.500252123428202"><ele>1.9999999999999998</ele><time>2026-04-22T16:30:05Z</time></trkpt><trkpt lat="43.31909593626664" lon="10.50017428075623"><ele>2.0</ele><time>2026-04-22T16:30:09Z</time></trkpt><trkpt lat="43.31905415277452" lon="10.500094387231854"><ele>2.0</ele><time>2026-04-22T16:30:13Z</time></trkpt><trkpt lat="43.31901457070087" lon="10.500020290803171"><ele>2.142857142857143</ele><time>2026-04-22T16:30:17Z</time></trkpt><trkpt lat="43.318977155592776" lon="10.499945458713855"><ele>2.2857142857142856</ele><time>2026-04-22T16:30:21Z</time></trkpt><trkpt lat="43.318926898483454" lon="10.499880088917333"><ele>2.4285714285714284</ele><time>2026-04-22T16:30:25Z</time></trkpt><trkpt lat="43.31885907629571" lon="10.49984908103244"><ele>2.571428571428571</ele><time>2026-04-22T16:30:30Z</time></trkpt><trkpt lat="43.31878158033733" lon="10.499831010847327"><ele>2.7142857142857144</ele><time>2026-04-22T16:30:35Z</time></trkpt><trkpt lat="43.31871719940487" lon="10.499825231367238"><ele>2.8571428571428568</ele><time>2026-04-22T16:30:39Z</time></trkpt><trkpt lat="43.31865154837208" lon="10.499818924812965"><ele>3.0</ele><time>2026-04-22T16:30:43Z</time></trkpt><trkpt lat="43.31858604360659" lon="10.499813541839035"><ele>3.1428571428571423</ele><time>2026-04-22T16:30:47Z</time></trkpt><trkpt lat="43.318521656477245" lon="10.499807346677738"><ele>3.2857142857142856</ele><time>2026-04-22T16:30:51Z</time></trkpt><trkpt lat="43.31845436393058" lon="10.49978612620909"><ele>3.4285714285714284</ele><time>2026-04-22T16:30:55Z</time></trkpt><trkpt lat="43.318387426464156" lon="10.499759677790708"><ele>3.571428571428571</ele><time>2026-04-22T16:30:59Z</time></trkpt><trkpt lat="43.31832509407354" lon="10.499718005097696"><ele>3.714285714285714</ele><time>2026-04-22T16:31:03Z</time></trkpt><trkpt lat="43.31826314520055" lon="10.49968530578869"><ele>3.8571428571428568</ele><time>2026-04-22T16:31:07Z</time></trkpt><trkpt lat="43.318207481826484" lon="10.499644196942226"><ele>4.0</ele><time>2026-04-22T16:31:11Z</time></trkpt><trkpt lat="43.31814860341492" lon="10.499590780571948"><ele>3.8571428571428568</ele><time>2026-04-22T16:31:17Z</time></trkpt><trkpt lat="43.318079680326676" lon="10.499550575109453"><ele>3.714285714285714</ele><time>2026-04-22T16:31:21Z</time></trkpt><trkpt lat="43.318011954170835" lon="10.49951087349751"><ele>3.571428571428571</ele><time>2026-04-22T16:31:26Z</time></trkpt><trkpt lat="43.31795862802408" lon="10.499454648333865"><ele>3.4285714285714284</ele><time>2026-04-22T16:31:31Z</time></trkpt><trkpt lat="43.31790559734692" lon="10.49940573024746"><ele>3.2857142857142856</ele><time>2026-04-22T16:31:36Z</time></trkpt><trkpt lat="43.31786260874563" lon="10.499332566750981"><ele>3.1428571428571423</ele><time>2026-04-22T16:31:40Z</time></trkpt><trkpt lat="43.317816403924596" lon="10.49926039529406"><ele>3.0</ele><time>2026-04-22T16:31:44Z</time></trkpt><trkpt lat="43.317763866351164" lon="10.499203990321252"><ele>2.9999999999999996</ele><time>2026-04-22T16:31:48Z</time></trkpt><trkpt lat="43.31771587285976" lon="10.499137380720462"><ele>3.0</ele><time>2026-04-22T16:31:52Z</time></trkpt><trkpt lat="43.3176693477144" lon="10.499050339242524"><ele>3.0</ele><time>2026-04-22T16:31:56Z</time></trkpt><trkpt lat="43.31762217934589" lon="10.498967863331568"><ele>3.0</ele><time>2026-04-22T16:32:00Z</time></trkpt><trkpt lat="43.317578677903796" lon="10.498889662066214"><ele>3.0</ele><time>2026-04-22T16:32:04Z</time></trkpt><trkpt lat="43.31753049632624" lon="10.498817033979382"><ele>2.9999999999999996</ele><time>2026-04-22T16:32:08Z</time></trkpt><trkpt lat="43.31749125141377" lon="10.498722122163342"><ele>3.0</ele><time>2026-04-22T16:32:12Z</time></trkpt><trkpt lat="43.31744806563284" lon="10.498641806991483"><ele>2.9999999999999996</ele><time>2026-04-22T16:32:16Z</time></trkpt><trkpt lat="43.3174013934693" lon="10.498568660323293"><ele>3.0</ele><time>2026-04-22T16:32:20Z</time></trkpt><trkpt lat="43.31736090459201" lon="10.498493329184269"><ele>3.0</ele><time>2026-04-22T16:32:24Z</time></trkpt><trkpt lat="43.317316723954065" lon="10.498427627216577"><ele>3.0</ele><time>2026-04-22T16:32:28Z</time></trkpt><trkpt lat="43.31727491551482" lon="10.498356902242627"><ele>3.0</ele><time>2026-04-22T16:32:32Z</time></trkpt><trkpt lat="43.31727464906784" lon="10.498255665066907"><ele>2.9999999999999996</ele><time>2026-04-22T16:32:36Z</time></trkpt><trkpt lat="43.31727243003751" lon="10.4981636925813"><ele>3.0</ele><time>2026-04-22T16:32:40Z</time></trkpt><trkpt lat="43.31729540521717" lon="10.49808086628617"><ele>2.9999999999999996</ele><time>2026-04-22T16:32:44Z</time></trkpt><trkpt lat="43.31726261739599" lon="10.49799223888228"><ele>3.0</ele><time>2026-04-22T16:32:50Z</time></trkpt><trkpt lat="43.31729399780149" lon="10.497906811394529"><ele>3.0</ele><time>2026-04-22T16:32:54Z</time></trkpt><trkpt lat="43.317311550333265" lon="10.497821265782811"><ele>3.0</ele><time>2026-04-22T16:32:58Z</time></trkpt><trkpt lat="43.3173268324201" lon="10.497719330308659"><ele>3.0</ele><time>2026-04-22T16:33:02Z</time></trkpt><trkpt lat="43.317340100573794" lon="10.497613887421204"><ele>2.9999999999999996</ele><time>2026-04-22T16:33:06Z</time></trkpt><trkpt lat="43.317352594669146" lon="10.497518044309016"><ele>3.0</ele><time>2026-04-22T16:33:10Z</time></trkpt><trkpt lat="43.31736243860115" lon="10.49742207263165"><ele>2.9999999999999996</ele><time>2026-04-22T16:33:14Z</time></trkpt><trkpt lat="43.317365513332305" lon="10.497326196679092"><ele>3.0</ele><time>2026-04-22T16:33:18Z</time></trkpt><trkpt lat="43.317354286796714" lon="10.49723353636815"><ele>3.0</ele><time>2026-04-22T16:33:22Z</time></trkpt><trkpt lat="43.31732888569671" lon="10.497146994902877"><ele>3.0</ele><time>2026-04-22T16:33:26Z</time></trkpt><trkpt lat="43.31729612603812" lon="10.497063714026103"><ele>3.0</ele><time>2026-04-22T16:33:30Z</time></trkpt><trkpt lat="43.31726230765837" lon="10.49698058891083"><ele>2.9999999999999996</ele><time>2026-04-22T16:33:34Z</time></trkpt><trkpt lat="43.31722433855126" lon="10.49690234347734"><ele>3.0</ele><time>2026-04-22T16:33:38Z</time></trkpt><trkpt lat="43.317187819270494" lon="10.496828481640124"><ele>2.8571428571428568</ele><time>2026-04-22T16:33:42Z</time></trkpt><trkpt lat="43.317140670482466" lon="10.49674218511401"><ele>2.7142857142857144</ele><time>2026-04-22T16:33:47Z</time></trkpt><trkpt lat="43.31709910298612" lon="10.496670933115526"><ele>2.571428571428571</ele><time>2026-04-22T16:33:51Z</time></trkpt><trkpt lat="43.317057893697" lon="10.4965973495701"><ele>2.4285714285714284</ele><time>2026-04-22T16:33:55Z</time></trkpt><trkpt lat="43.31701690450899" lon="10.496529723790127"><ele>2.2857142857142856</ele><time>2026-04-22T16:33:59Z</time></trkpt><trkpt lat="43.316969739721436" lon="10.496442826768966"><ele>2.142857142857143</ele><time>2026-04-22T16:34:04Z</time></trkpt><trkpt lat="43.31692570776527" lon="10.496370606174969"><ele>2.0</ele><time>2026-04-22T16:34:08Z</time></trkpt><trkpt lat="43.316881999302524" lon="10.496297997213526"><ele>1.857142857142857</ele><time>2026-04-22T16:34:12Z</time></trkpt><trkpt lat="43.316843040537535" lon="10.496222904644991"><ele>1.714285714285714</ele><time>2026-04-22T16:34:16Z</time></trkpt><trkpt lat="43.31679932288205" lon="10.496151034467564"><ele>1.5714285714285714</ele><time>2026-04-22T16:34:20Z</time></trkpt><trkpt lat="43.31675706170099" lon="10.496077408354743"><ele>1.4285714285714284</ele><time>2026-04-22T16:34:24Z</time></trkpt><trkpt lat="43.3167119811981" lon="10.49600586112674"><ele>1.2857142857142856</ele><time>2026-04-22T16:34:28Z</time></trkpt><trkpt lat="43.31667281846773" lon="10.495934019581782"><ele>1.1428571428571428</ele><time>2026-04-22T16:34:32Z</time></trkpt><trkpt lat="43.31663401400792" lon="10.495862164358895"><ele>1.0</ele><time>2026-04-22T16:34:36Z</time></trkpt><trkpt lat="43.31659272952126" lon="10.495792638944762"><ele>1.0</ele><time>2026-04-22T16:34:40Z</time></trkpt><trkpt lat="43.31655194583528" lon="10.495718058296504"><ele>0.9999999999999999</ele><time>2026-04-22T16:34:44Z</time></trkpt><trkpt lat="43.31650952286526" lon="10.495648039825467"><ele>1.0</ele><time>2026-04-22T16:34:48Z</time></trkpt><trkpt lat="43.31646527981492" lon="10.495578591095583"><ele>1.0</ele><time>2026-04-22T16:34:52Z</time></trkpt><trkpt lat="43.316423143359565" lon="10.49550880952263"><ele>0.9999999999999999</ele><time>2026-04-22T16:34:56Z</time></trkpt><trkpt lat="43.316379928577845" lon="10.495444762404706"><ele>1.0</ele><time>2026-04-22T16:35:00Z</time></trkpt><trkpt lat="43.31633748631434" lon="10.495379120162616"><ele>1.0</ele><time>2026-04-22T16:35:04Z</time></trkpt><trkpt lat="43.316296359618704" lon="10.495306874339088"><ele>1.1428571428571428</ele><time>2026-04-22T16:35:08Z</time></trkpt><trkpt lat="43.31625607154889" lon="10.495230723501122"><ele>1.2857142857142856</ele><time>2026-04-22T16:35:12Z</time></trkpt><trkpt lat="43.3162096072575" lon="10.495167317980753"><ele>1.4285714285714284</ele><time>2026-04-22T16:35:16Z</time></trkpt><trkpt lat="43.31616867563963" lon="10.495092558594303"><ele>1.5714285714285714</ele><time>2026-04-22T16:35:20Z</time></trkpt><trkpt lat="43.316124813624164" lon="10.49502168573436"><ele>1.714285714285714</ele><time>2026-04-22T16:35:24Z</time></trkpt><trkpt lat="43.31607705966133" lon="10.49494086291166"><ele>1.857142857142857</ele><time>2026-04-22T16:35:28Z</time></trkpt><trkpt lat="43.31603165993433" lon="10.49484969244072"><ele>2.0</ele><time>2026-04-22T16:35:33Z</time></trkpt><trkpt lat="43.31599011164436" lon="10.494774962759022"><ele>2.0</ele><time>2026-04-22T16:35:37Z</time></trkpt><trkpt lat="43.31594832574233" lon="10.494703208219223"><ele>1.9999999999999998</ele><time>2026-04-22T16:35:41Z</time></trkpt><trkpt lat="43.31590470429735" lon="10.494632743538217"><ele>2.0</ele><time>2026-04-22T16:35:45Z</time></trkpt><trkpt lat="43.315862913752206" lon="10.49456490436641"><ele>2.0</ele><time>2026-04-22T16:35:49Z</time></trkpt><trkpt lat="43.315821759859126" lon="10.494493835826125"><ele>1.9999999999999998</ele><time>2026-04-22T16:35:53Z</time></trkpt><trkpt lat="43.315779750377295" lon="10.494423612031888"><ele>2.0</ele><time>2026-04-22T16:35:57Z</time></trkpt><trkpt lat="43.31573998624931" lon="10.494351292288767"><ele>2.0</ele><time>2026-04-22T16:36:01Z</time></trkpt><trkpt lat="43.31569865940617" lon="10.49427866294"><ele>2.0</ele><time>2026-04-22T16:36:05Z</time></trkpt><trkpt lat="43.31565607907883" lon="10.49420847223532"><ele>1.9999999999999998</ele><time>2026-04-22T16:36:09Z</time></trkpt><trkpt lat="43.31561450642731" lon="10.494137271632102"><ele>2.0</ele><time>2026-04-22T16:36:13Z</time></trkpt><trkpt lat="43.31557235835563" lon="10.494064642849876"><ele>2.0</ele><time>2026-04-22T16:36:17Z</time></trkpt><trkpt lat="43.315530326830284" lon="10.49399429284053"><ele>1.9999999999999998</ele><time>2026-04-22T16:36:21Z</time></trkpt><trkpt lat="43.31548911957951" lon="10.493919950655949"><ele>2.0</ele><time>2026-04-22T16:36:25Z</time></trkpt><trkpt lat="43.315446494482806" lon="10.493849673618028"><ele>2.0</ele><time>2026-04-22T16:36:29Z</time></trkpt><trkpt lat="43.3154024063671" lon="10.493780730047247"><ele>2.0</ele><time>2026-04-22T16:36:33Z</time></trkpt><trkpt lat="43.31536015823175" lon="10.493710578164661"><ele>1.9999999999999998</ele><time>2026-04-22T16:36:37Z</time></trkpt><trkpt lat="43.31531779411109" lon="10.493637207218903"><ele>2.0</ele><time>2026-04-22T16:36:41Z</time></trkpt><trkpt lat="43.315276527857534" lon="10.493564157749725"><ele>2.0</ele><time>2026-04-22T16:36:45Z</time></trkpt><trkpt lat="43.31523406680372" lon="10.493493559510238"><ele>1.9999999999999998</ele><time>2026-04-22T16:36:49Z</time></trkpt><trkpt lat="43.315193355990125" lon="10.49341984648574"><ele>2.0</ele><time>2026-04-22T16:36:53Z</time></trkpt><trkpt lat="43.31515209944162" lon="10.49334938101558"><ele>2.0</ele><time>2026-04-22T16:36:57Z</time></trkpt><trkpt lat="43.31510853932664" lon="10.49327919576757"><ele>2.0</ele><time>2026-04-22T16:37:01Z</time></trkpt><trkpt lat="43.31506895844274" lon="10.493209022311953"><ele>1.9999999999999998</ele><time>2026-04-22T16:37:05Z</time></trkpt><trkpt lat="43.315028039942035" lon="10.493134964242284"><ele>2.0</ele><time>2026-04-22T16:37:09Z</time></trkpt><trkpt lat="43.31498501600686" lon="10.49306244193887"><ele>2.0</ele><time>2026-04-22T16:37:13Z</time></trkpt><trkpt lat="43.31493922618667" lon="10.492993570243346"><ele>1.9999999999999998</ele><time>2026-04-22T16:37:17Z</time></trkpt><trkpt lat="43.31489883949158" lon="10.492918451963291"><ele>2.0</ele><time>2026-04-22T16:37:21Z</time></trkpt><trkpt lat="43.31485614691201" lon="10.49284834341604"><ele>2.0</ele><time>2026-04-22T16:37:25Z</time></trkpt><trkpt lat="43.3148143008759" lon="10.4927763244251"><ele>2.0</ele><time>2026-04-22T16:37:29Z</time></trkpt><trkpt lat="43.31477493355496" lon="10.492702608231014"><ele>1.9999999999999998</ele><time>2026-04-22T16:37:33Z</time></trkpt><trkpt lat="43.31473415132839" lon="10.492631915310971"><ele>2.0</ele><time>2026-04-22T16:37:37Z</time></trkpt><trkpt lat="43.31469198565616" lon="10.492557343478122"><ele>2.0</ele><time>2026-04-22T16:37:41Z</time></trkpt><trkpt lat="43.31464941305584" lon="10.492490715305316"><ele>1.9999999999999998</ele><time>2026-04-22T16:37:45Z</time></trkpt><trkpt lat="43.31460541431588" lon="10.492424703733704"><ele>2.0</ele><time>2026-04-22T16:37:49Z</time></trkpt><trkpt lat="43.31456515222319" lon="10.492352398198614"><ele>2.0</ele><time>2026-04-22T16:37:53Z</time></trkpt><trkpt lat="43.31452207827868" lon="10.492286692042718"><ele>2.0</ele><time>2026-04-22T16:37:57Z</time></trkpt><trkpt lat="43.31448139698765" lon="10.492215787314157"><ele>1.9999999999999998</ele><time>2026-04-22T16:38:01Z</time></trkpt><trkpt lat="43.31444058608945" lon="10.492142749963707"><ele>2.0</ele><time>2026-04-22T16:38:05Z</time></trkpt><trkpt lat="43.31439729937956" lon="10.49207106885484"><ele>2.0</ele><time>2026-04-22T16:38:09Z</time></trkpt><trkpt lat="43.31435571810955" lon="10.492000278971421"><ele>1.9999999999999998</ele><time>2026-04-22T16:38:13Z</time></trkpt><trkpt lat="43.31431259652624" lon="10.491929039418382"><ele>2.0</ele><time>2026-04-22T16:38:17Z</time></trkpt><trkpt lat="43.314271034049575" lon="10.49185798313787"><ele>2.0</ele><time>2026-04-22T16:38:21Z</time></trkpt><trkpt lat="43.31422719726078" lon="10.491783718285621"><ele>2.0</ele><time>2026-04-22T16:38:25Z</time></trkpt><trkpt lat="43.314184899774894" lon="10.491712223931984"><ele>1.9999999999999998</ele><time>2026-04-22T16:38:29Z</time></trkpt><trkpt lat="43.314141694568306" lon="10.49163456537855"><ele>2.0</ele><time>2026-04-22T16:38:33Z</time></trkpt><trkpt lat="43.31410246592085" lon="10.49155852707183"><ele>2.0</ele><time>2026-04-22T16:38:37Z</time></trkpt><trkpt lat="43.31406166012549" lon="10.491492435758557"><ele>1.9999999999999998</ele><time>2026-04-22T16:38:41Z</time></trkpt><trkpt lat="43.314019490295514" lon="10.491418651590767"><ele>2.0</ele><time>2026-04-22T16:38:45Z</time></trkpt><trkpt lat="43.313976609066984" lon="10.491345429924147"><ele>2.0</ele><time>2026-04-22T16:38:49Z</time></trkpt><trkpt lat="43.31393531186282" lon="10.491274670558186"><ele>2.142857142857143</ele><time>2026-04-22T16:38:53Z</time></trkpt><trkpt lat="43.313893669869316" lon="10.491207342215109"><ele>2.2857142857142856</ele><time>2026-04-22T16:38:57Z</time></trkpt><trkpt lat="43.31385206464832" lon="10.491137502894633"><ele>2.4285714285714284</ele><time>2026-04-22T16:39:01Z</time></trkpt><trkpt lat="43.3138087217951" lon="10.491063994469028"><ele>2.571428571428571</ele><time>2026-04-22T16:39:05Z</time></trkpt><trkpt lat="43.31376824917494" lon="10.490992630495832"><ele>2.7142857142857144</ele><time>2026-04-22T16:39:09Z</time></trkpt><trkpt lat="43.313725987396225" lon="10.49092004439376"><ele>2.8571428571428568</ele><time>2026-04-22T16:39:13Z</time></trkpt><trkpt lat="43.313682903396966" lon="10.490849473359694"><ele>3.0</ele><time>2026-04-22T16:39:17Z</time></trkpt><trkpt lat="43.3136435481732" lon="10.490777775880945"><ele>2.9999999999999996</ele><time>2026-04-22T16:39:21Z</time></trkpt><trkpt lat="43.313601405253316" lon="10.490713434054806"><ele>3.0</ele><time>2026-04-22T16:39:25Z</time></trkpt><trkpt lat="43.3135617266651" lon="10.4906444881035"><ele>3.0</ele><time>2026-04-22T16:39:29Z</time></trkpt><trkpt lat="43.31352186945714" lon="10.490574527012724"><ele>3.0</ele><time>2026-04-22T16:39:33Z</time></trkpt><trkpt lat="43.31347134238931" lon="10.490490464957965"><ele>3.0</ele><time>2026-04-22T16:39:38Z</time></trkpt><trkpt lat="43.31342913219873" lon="10.490423100813407"><ele>2.9999999999999996</ele><time>2026-04-22T16:39:42Z</time></trkpt><trkpt lat="43.313390372666" lon="10.49034583356265"><ele>3.0</ele><time>2026-04-22T16:39:46Z</time></trkpt><trkpt lat="43.313350251304314" lon="10.490276271950933"><ele>2.8571428571428568</ele><time>2026-04-22T16:39:50Z</time></trkpt><trkpt lat="43.31331021783127" lon="10.490207815373157"><ele>2.7142857142857144</ele><time>2026-04-22T16:39:54Z</time></trkpt><trkpt lat="43.31325625457961" lon="10.490131453441986"><ele>2.571428571428571</ele><time>2026-04-22T16:39:59Z</time></trkpt><trkpt lat="43.313217643976444" lon="10.490061892392454"><ele>2.4285714285714284</ele><time>2026-04-22T16:40:03Z</time></trkpt><trkpt lat="43.31317869928218" lon="10.48998543949491"><ele>2.2857142857142856</ele><time>2026-04-22T16:40:07Z</time></trkpt><trkpt lat="43.313136240554634" lon="10.48991499925324"><ele>2.142857142857143</ele><time>2026-04-22T16:40:11Z</time></trkpt><trkpt lat="43.31309701551586" lon="10.489847130321646"><ele>2.0</ele><time>2026-04-22T16:40:15Z</time></trkpt><trkpt lat="43.31304729065314" lon="10.489765554220785"><ele>1.5714285714285714</ele><time>2026-04-22T16:40:20Z</time></trkpt><trkpt lat="43.31300689332921" lon="10.489694099071711"><ele>1.1428571428571428</ele><time>2026-04-22T16:40:24Z</time></trkpt><trkpt lat="43.312962576016496" lon="10.489623030373204"><ele>0.7142857142857142</ele><time>2026-04-22T16:40:28Z</time></trkpt><trkpt lat="43.31292282446064" lon="10.489546485942272"><ele>0.2857142857142857</ele><time>2026-04-22T16:40:32Z</time></trkpt><trkpt lat="43.31288265804501" lon="10.489473062886752"><ele>-0.1428571428571428</ele><time>2026-04-22T16:40:36Z</time></trkpt><trkpt lat="43.312839720148624" lon="10.489398949868354"><ele>-0.5714285714285714</ele><time>2026-04-22T16:40:40Z</time></trkpt><trkpt lat="43.312796745640846" lon="10.489328124896165"><ele>-1.0</ele><time>2026-04-22T16:40:44Z</time></trkpt><trkpt lat="43.31275637766392" lon="10.489255386242357"><ele>-1.0</ele><time>2026-04-22T16:40:48Z</time></trkpt><trkpt lat="43.31271335198358" lon="10.489184045500616"><ele>-0.9999999999999999</ele><time>2026-04-22T16:40:52Z</time></trkpt><trkpt lat="43.31267102379976" lon="10.489111653980068"><ele>-1.0</ele><time>2026-04-22T16:40:56Z</time></trkpt><trkpt lat="43.31262839073561" lon="10.48903686574084"><ele>-1.0</ele><time>2026-04-22T16:41:00Z</time></trkpt><trkpt lat="43.312586028834694" lon="10.488964186927184"><ele>-0.9999999999999999</ele><time>2026-04-22T16:41:04Z</time></trkpt><trkpt lat="43.31254368423586" lon="10.488890682428606"><ele>-1.0</ele><time>2026-04-22T16:41:08Z</time></trkpt><trkpt lat="43.312500522782805" lon="10.488818042585562"><ele>-1.0</ele><time>2026-04-22T16:41:12Z</time></trkpt><trkpt lat="43.31246041576672" lon="10.488746652909677"><ele>-1.0</ele><time>2026-04-22T16:41:16Z</time></trkpt><trkpt lat="43.31241868121164" lon="10.488676479509422"><ele>-0.9999999999999999</ele><time>2026-04-22T16:41:20Z</time></trkpt><trkpt lat="43.31237703968377" lon="10.488606579804266"><ele>-1.0</ele><time>2026-04-22T16:41:24Z</time></trkpt><trkpt lat="43.31233640511259" lon="10.48853885479211"><ele>-1.0</ele><time>2026-04-22T16:41:28Z</time></trkpt><trkpt lat="43.31229371911178" lon="10.488469041896543"><ele>-0.9999999999999999</ele><time>2026-04-22T16:41:32Z</time></trkpt><trkpt lat="43.31225399875533" lon="10.488397637575636"><ele>-1.0</ele><time>2026-04-22T16:41:36Z</time></trkpt><trkpt lat="43.31221346712595" lon="10.488326220528275"><ele>-1.0</ele><time>2026-04-22T16:41:40Z</time></trkpt><trkpt lat="43.31216935092445" lon="10.48825637725539"><ele>-0.8571428571428571</ele><time>2026-04-22T16:41:44Z</time></trkpt><trkpt lat="43.31212800779397" lon="10.488184116781134"><ele>-0.7142857142857142</ele><time>2026-04-22T16:41:48Z</time></trkpt><trkpt lat="43.31208583563761" lon="10.488114071127761"><ele>-0.5714285714285714</ele><time>2026-04-22T16:41:52Z</time></trkpt><trkpt lat="43.312044403507706" lon="10.488042225170782"><ele>-0.42857142857142855</ele><time>2026-04-22T16:41:56Z</time></trkpt><trkpt lat="43.312001618890974" lon="10.487972090836491"><ele>-0.2857142857142857</ele><time>2026-04-22T16:42:00Z</time></trkpt><trkpt lat="43.31196163740496" lon="10.487901042830087"><ele>-0.14285714285714285</ele><time>2026-04-22T16:42:04Z</time></trkpt><trkpt lat="43.31191872168019" lon="10.48783081404142"><ele>0.0</ele><time>2026-04-22T16:42:08Z</time></trkpt><trkpt lat="43.3118775624477" lon="10.48776074722484"><ele>0.0</ele><time>2026-04-22T16:42:12Z</time></trkpt><trkpt lat="43.311836946815724" lon="10.487688373634944"><ele>0.0</ele><time>2026-04-22T16:42:16Z</time></trkpt><trkpt lat="43.311793535356664" lon="10.487620240342851"><ele>0.0</ele><time>2026-04-22T16:42:20Z</time></trkpt><trkpt lat="43.31175348894981" lon="10.487547252743118"><ele>0.0</ele><time>2026-04-22T16:42:24Z</time></trkpt><trkpt lat="43.31171254911406" lon="10.487474981709397"><ele>0.0</ele><time>2026-04-22T16:42:28Z</time></trkpt><trkpt lat="43.31167229309321" lon="10.48740120634646"><ele>0.0</ele><time>2026-04-22T16:42:32Z</time></trkpt><trkpt lat="43.311629825312195" lon="10.48733267649676"><ele>0.0</ele><time>2026-04-22T16:42:36Z</time></trkpt><trkpt lat="43.311586999122746" lon="10.487261961219955"><ele>0.0</ele><time>2026-04-22T16:42:40Z</time></trkpt><trkpt lat="43.31154526563789" lon="10.487192422682329"><ele>0.0</ele><time>2026-04-22T16:42:44Z</time></trkpt><trkpt lat="43.31149459076356" lon="10.487132680518584"><ele>0.0</ele><time>2026-04-22T16:42:48Z</time></trkpt><trkpt lat="43.31143604270118" lon="10.487086572104873"><ele>0.0</ele><time>2026-04-22T16:42:52Z</time></trkpt><trkpt lat="43.31137139806129" lon="10.487064005844095"><ele>0.0</ele><time>2026-04-22T16:42:56Z</time></trkpt><trkpt lat="43.31130707852883" lon="10.487051871334813"><ele>0.0</ele><time>2026-04-22T16:43:00Z</time></trkpt><trkpt lat="43.31124139075319" lon="10.487057388301956"><ele>0.0</ele><time>2026-04-22T16:43:04Z</time></trkpt><trkpt lat="43.31117451958597" lon="10.487076996136015"><ele>0.0</ele><time>2026-04-22T16:43:08Z</time></trkpt><trkpt lat="43.311109347535904" lon="10.487101351669706"><ele>0.0</ele><time>2026-04-22T16:43:12Z</time></trkpt><trkpt lat="43.31104374818979" lon="10.487127392808764"><ele>0.0</ele><time>2026-04-22T16:43:16Z</time></trkpt><trkpt lat="43.31097790304425" lon="10.48715332490511"><ele>0.0</ele><time>2026-04-22T16:43:20Z</time></trkpt><trkpt lat="43.31091290678372" lon="10.487183822164793"><ele>0.0</ele><time>2026-04-22T16:43:24Z</time></trkpt><trkpt lat="43.310849235462854" lon="10.487220600940846"><ele>0.0</ele><time>2026-04-22T16:43:28Z</time></trkpt><trkpt lat="43.310790682584354" lon="10.487272531948689"><ele>0.0</ele><time>2026-04-22T16:43:32Z</time></trkpt><trkpt lat="43.31073406782535" lon="10.487325281131055"><ele>0.0</ele><time>2026-04-22T16:43:36Z</time></trkpt><trkpt lat="43.310677490314276" lon="10.487376797426665"><ele>0.0</ele><time>2026-04-22T16:43:40Z</time></trkpt><trkpt lat="43.31061881164545" lon="10.487422882503786"><ele>0.0</ele><time>2026-04-22T16:43:44Z</time></trkpt><trkpt lat="43.31056351287288" lon="10.487474169249191"><ele>0.0</ele><time>2026-04-22T16:43:48Z</time></trkpt><trkpt lat="43.310506537833504" lon="10.487522297264158"><ele>0.0</ele><time>2026-04-22T16:43:52Z</time></trkpt><trkpt lat="43.3104482921184" lon="10.48757217548408"><ele>0.0</ele><time>2026-04-22T16:43:56Z</time></trkpt><trkpt lat="43.31039161313297" lon="10.487621082830044"><ele>0.0</ele><time>2026-04-22T16:44:00Z</time></trkpt><trkpt lat="43.31033243704474" lon="10.487672449755134"><ele>0.14285714285714285</ele><time>2026-04-22T16:44:04Z</time></trkpt><trkpt lat="43.31027659628289" lon="10.487727008995591"><ele>0.2857142857142857</ele><time>2026-04-22T16:44:08Z</time></trkpt><trkpt lat="43.31021703741223" lon="10.487775761732326"><ele>0.42857142857142855</ele><time>2026-04-22T16:44:12Z</time></trkpt><trkpt lat="43.31016201456118" lon="10.487830181474969"><ele>0.5714285714285714</ele><time>2026-04-22T16:44:16Z</time></trkpt><trkpt lat="43.310103642328876" lon="10.48787992795903"><ele>0.7142857142857142</ele><time>2026-04-22T16:44:20Z</time></trkpt><trkpt lat="43.31004645752794" lon="10.487928450474445"><ele>0.8571428571428571</ele><time>2026-04-22T16:44:24Z</time></trkpt><trkpt lat="43.309987990879144" lon="10.487975592995586"><ele>1.0</ele><time>2026-04-22T16:44:28Z</time></trkpt><trkpt lat="43.30993298672661" lon="10.488025923836682"><ele>1.1428571428571428</ele><time>2026-04-22T16:44:32Z</time></trkpt><trkpt lat="43.3098778614541" lon="10.48807655107083"><ele>1.2857142857142856</ele><time>2026-04-22T16:44:36Z</time></trkpt><trkpt lat="43.30981986971336" lon="10.488122036384121"><ele>1.4285714285714284</ele><time>2026-04-22T16:44:40Z</time></trkpt><trkpt lat="43.30976574792582" lon="10.488172797980011"><ele>1.5714285714285714</ele><time>2026-04-22T16:44:44Z</time></trkpt><trkpt lat="43.3097025195295" lon="10.4882277555033"><ele>1.714285714285714</ele><time>2026-04-22T16:44:48Z</time></trkpt><trkpt lat="43.30963929898387" lon="10.488285569332952"><ele>1.857142857142857</ele><time>2026-04-22T16:44:53Z</time></trkpt><trkpt lat="43.30958371503963" lon="10.488336980278225"><ele>2.0</ele><time>2026-04-22T16:44:57Z</time></trkpt><trkpt lat="43.30952770038755" lon="10.488391183274699"><ele>1.7142857142857142</ele><time>2026-04-22T16:45:01Z</time></trkpt><trkpt lat="43.309471347376565" lon="10.488443786427998"><ele>1.4285714285714284</ele><time>2026-04-22T16:45:05Z</time></trkpt><trkpt lat="43.30941539928396" lon="10.488494244036108"><ele>1.1428571428571428</ele><time>2026-04-22T16:45:09Z</time></trkpt><trkpt lat="43.30935637405517" lon="10.488542658318977"><ele>0.8571428571428571</ele><time>2026-04-22T16:45:13Z</time></trkpt><trkpt lat="43.309298364625064" lon="10.488592984610149"><ele>0.5714285714285714</ele><time>2026-04-22T16:45:17Z</time></trkpt><trkpt lat="43.30924014441045" lon="10.488642584718885"><ele>0.2857142857142857</ele><time>2026-04-22T16:45:21Z</time></trkpt><trkpt lat="43.30918468734637" lon="10.48869574307252"><ele>0.0</ele><time>2026-04-22T16:45:25Z</time></trkpt><trkpt lat="43.30912740259621" lon="10.48874590452668"><ele>0.14285714285714285</ele><time>2026-04-22T16:45:29Z</time></trkpt><trkpt lat="43.30907236541838" lon="10.488798513109094"><ele>0.2857142857142857</ele><time>2026-04-22T16:45:33Z</time></trkpt><trkpt lat="43.309014574020246" lon="10.488850752419468"><ele>0.42857142857142855</ele><time>2026-04-22T16:45:37Z</time></trkpt><trkpt lat="43.30895881111585" lon="10.488901955338518"><ele>0.5714285714285714</ele><time>2026-04-22T16:45:41Z</time></trkpt><trkpt lat="43.3089040604888" lon="10.488954451678278"><ele>0.7142857142857142</ele><time>2026-04-22T16:45:45Z</time></trkpt><trkpt lat="43.30884920820385" lon="10.48900513725863"><ele>0.8571428571428571</ele><time>2026-04-22T16:45:49Z</time></trkpt><trkpt lat="43.30879265590528" lon="10.489052630246325"><ele>1.0</ele><time>2026-04-22T16:45:53Z</time></trkpt><trkpt lat="43.308735338864345" lon="10.489104917970865"><ele>1.0</ele><time>2026-04-22T16:45:57Z</time></trkpt><trkpt lat="43.308681219780375" lon="10.489152443466757"><ele>0.9999999999999999</ele><time>2026-04-22T16:46:01Z</time></trkpt><trkpt lat="43.3086196006293" lon="10.489200617624267"><ele>1.0</ele><time>2026-04-22T16:46:06Z</time></trkpt><trkpt lat="43.30855690183144" lon="10.489258640369384"><ele>1.0</ele><time>2026-04-22T16:46:11Z</time></trkpt><trkpt lat="43.308492929914586" lon="10.489311702340782"><ele>0.9999999999999999</ele><time>2026-04-22T16:46:16Z</time></trkpt><trkpt lat="43.308427322656684" lon="10.489372378981429"><ele>1.0</ele><time>2026-04-22T16:46:21Z</time></trkpt><trkpt lat="43.30836613427021" lon="10.489433154015082"><ele>1.0</ele><time>2026-04-22T16:46:25Z</time></trkpt><trkpt lat="43.308305300978255" lon="10.489491486397037"><ele>1.0</ele><time>2026-04-22T16:46:29Z</time></trkpt><trkpt lat="43.30824983968449" lon="10.489546735473551"><ele>0.9999999999999999</ele><time>2026-04-22T16:46:33Z</time></trkpt><trkpt lat="43.308182958387654" lon="10.489594426255424"><ele>1.0</ele><time>2026-04-22T16:46:37Z</time></trkpt><trkpt lat="43.308127633634875" lon="10.48964931222807"><ele>1.0</ele><time>2026-04-22T16:46:41Z</time></trkpt><trkpt lat="43.308067626803464" lon="10.489702733179701"><ele>0.9999999999999999</ele><time>2026-04-22T16:46:45Z</time></trkpt><trkpt lat="43.30800946980712" lon="10.489754732529837"><ele>1.0</ele><time>2026-04-22T16:46:49Z</time></trkpt><trkpt lat="43.307952189301915" lon="10.489803562258354"><ele>1.0</ele><time>2026-04-22T16:46:53Z</time></trkpt><trkpt lat="43.30789208812056" lon="10.489855344926651"><ele>1.4285714285714284</ele><time>2026-04-22T16:46:57Z</time></trkpt><trkpt lat="43.307833098954006" lon="10.48990881127898"><ele>1.857142857142857</ele><time>2026-04-22T16:47:01Z</time></trkpt><trkpt lat="43.307778966234736" lon="10.489962027015293"><ele>2.2857142857142856</ele><time>2026-04-22T16:47:05Z</time></trkpt><trkpt lat="43.30771900033623" lon="10.489999936306555"><ele>2.714285714285714</ele><time>2026-04-22T16:47:09Z</time></trkpt><trkpt lat="43.307669790520166" lon="10.490056577286198"><ele>3.1428571428571423</ele><time>2026-04-22T16:47:13Z</time></trkpt><trkpt lat="43.307603438888705" lon="10.490115230154808"><ele>3.571428571428571</ele><time>2026-04-22T16:47:18Z</time></trkpt><trkpt lat="43.30754836185235" lon="10.490164309146259"><ele>4.0</ele><time>2026-04-22T16:47:22Z</time></trkpt><trkpt lat="43.30749251557134" lon="10.490208094911813"><ele>4.0</ele><time>2026-04-22T16:47:26Z</time></trkpt><trkpt lat="43.3074360943778" lon="10.490250908821965"><ele>3.9999999999999996</ele><time>2026-04-22T16:47:30Z</time></trkpt><trkpt lat="43.307383649903166" lon="10.490305422417443"><ele>4.0</ele><time>2026-04-22T16:47:34Z</time></trkpt><trkpt lat="43.307328915986474" lon="10.490354281102528"><ele>4.0</ele><time>2026-04-22T16:47:38Z</time></trkpt><trkpt lat="43.307276898946945" lon="10.490406936008359"><ele>3.9999999999999996</ele><time>2026-04-22T16:47:42Z</time></trkpt><trkpt lat="43.30722000267539" lon="10.49045697357959"><ele>4.0</ele><time>2026-04-22T16:47:46Z</time></trkpt><trkpt lat="43.30716421363819" lon="10.490513171093307"><ele>4.0</ele><time>2026-04-22T16:47:50Z</time></trkpt><trkpt lat="43.30711227454291" lon="10.490563450852878"><ele>3.8571428571428568</ele><time>2026-04-22T16:47:54Z</time></trkpt><trkpt lat="43.30705800810554" lon="10.490615693074579"><ele>3.714285714285714</ele><time>2026-04-22T16:47:58Z</time></trkpt><trkpt lat="43.306997552112456" lon="10.490661514873583"><ele>3.571428571428571</ele><time>2026-04-22T16:48:02Z</time></trkpt><trkpt lat="43.30693927589899" lon="10.490710499192856"><ele>3.4285714285714284</ele><time>2026-04-22T16:48:06Z</time></trkpt><trkpt lat="43.30687771970064" lon="10.490761101045118"><ele>3.2857142857142856</ele><time>2026-04-22T16:48:10Z</time></trkpt><trkpt lat="43.30682296308991" lon="10.490816048046733"><ele>3.1428571428571423</ele><time>2026-04-22T16:48:14Z</time></trkpt><trkpt lat="43.30676412468285" lon="10.490864089546328"><ele>3.0</ele><time>2026-04-22T16:48:18Z</time></trkpt><trkpt lat="43.30670529471804" lon="10.490912852776258"><ele>2.9999999999999996</ele><time>2026-04-22T16:48:22Z</time></trkpt><trkpt lat="43.306648887513965" lon="10.490966311024083"><ele>3.0</ele><time>2026-04-22T16:48:26Z</time></trkpt><trkpt lat="43.30659180388078" lon="10.491017883787373"><ele>3.0</ele><time>2026-04-22T16:48:30Z</time></trkpt><trkpt lat="43.30653543100455" lon="10.491066409299785"><ele>3.0</ele><time>2026-04-22T16:48:34Z</time></trkpt><trkpt lat="43.30648138387016" lon="10.491118727501094"><ele>3.0</ele><time>2026-04-22T16:48:38Z</time></trkpt><trkpt lat="43.30642266673669" lon="10.491171929691628"><ele>2.9999999999999996</ele><time>2026-04-22T16:48:42Z</time></trkpt><trkpt lat="43.306362690345104" lon="10.491226191567291"><ele>3.0</ele><time>2026-04-22T16:48:46Z</time></trkpt><trkpt lat="43.306303057610826" lon="10.491273564746354"><ele>2.714285714285714</ele><time>2026-04-22T16:48:50Z</time></trkpt><trkpt lat="43.306244362127615" lon="10.491325433328981"><ele>2.4285714285714284</ele><time>2026-04-22T16:48:54Z</time></trkpt><trkpt lat="43.30618749442276" lon="10.491373552011684"><ele>2.142857142857143</ele><time>2026-04-22T16:48:58Z</time></trkpt><trkpt lat="43.30613053323446" lon="10.491421620924319"><ele>1.857142857142857</ele><time>2026-04-22T16:49:02Z</time></trkpt><trkpt lat="43.306073418173376" lon="10.491472704191548"><ele>1.5714285714285712</ele><time>2026-04-22T16:49:06Z</time></trkpt><trkpt lat="43.306016789086875" lon="10.49151923317241"><ele>1.2857142857142856</ele><time>2026-04-22T16:49:10Z</time></trkpt><trkpt lat="43.305960520990325" lon="10.491568290839137"><ele>1.0</ele><time>2026-04-22T16:49:14Z</time></trkpt><trkpt lat="43.30590745987232" lon="10.491616626439688"><ele>1.0</ele><time>2026-04-22T16:49:18Z</time></trkpt><trkpt lat="43.30584320170793" lon="10.491677661843765"><ele>0.9999999999999999</ele><time>2026-04-22T16:49:23Z</time></trkpt><trkpt lat="43.30577863154696" lon="10.491737193580638"><ele>1.0</ele><time>2026-04-22T16:49:28Z</time></trkpt><trkpt lat="43.30571444699018" lon="10.491800434067603"><ele>1.0</ele><time>2026-04-22T16:49:33Z</time></trkpt><trkpt lat="43.30565849694247" lon="10.491846173577871"><ele>0.9999999999999999</ele><time>2026-04-22T16:49:37Z</time></trkpt><trkpt lat="43.30560146886442" lon="10.491895658284353"><ele>1.0</ele><time>2026-04-22T16:49:41Z</time></trkpt><trkpt lat="43.305545888883756" lon="10.491945653852762"><ele>1.0</ele><time>2026-04-22T16:49:45Z</time></trkpt><trkpt lat="43.305485598751474" lon="10.491995837350261"><ele>0.8571428571428571</ele><time>2026-04-22T16:49:49Z</time></trkpt><trkpt lat="43.305427240980485" lon="10.492049255452367"><ele>0.7142857142857142</ele><time>2026-04-22T16:49:53Z</time></trkpt><trkpt lat="43.30537053575861" lon="10.492097763879482"><ele>0.5714285714285714</ele><time>2026-04-22T16:49:57Z</time></trkpt><trkpt lat="43.30531535425319" lon="10.492148759373661"><ele>0.42857142857142855</ele><time>2026-04-22T16:50:01Z</time></trkpt><trkpt lat="43.305255861648035" lon="10.492197399998908"><ele>0.2857142857142857</ele><time>2026-04-22T16:50:05Z</time></trkpt><trkpt lat="43.305197050521" lon="10.492244804432731"><ele>0.14285714285714285</ele><time>2026-04-22T16:50:09Z</time></trkpt><trkpt lat="43.30513718241008" lon="10.492295528797865"><ele>0.0</ele><time>2026-04-22T16:50:13Z</time></trkpt><trkpt lat="43.30508178798926" lon="10.492351423857187"><ele>0.0</ele><time>2026-04-22T16:50:17Z</time></trkpt><trkpt lat="43.30502484059787" lon="10.49240097745992"><ele>0.0</ele><time>2026-04-22T16:50:21Z</time></trkpt><trkpt lat="43.304972068638016" lon="10.492456760959058"><ele>0.0</ele><time>2026-04-22T16:50:25Z</time></trkpt><trkpt lat="43.304914300724434" lon="10.492509984890424"><ele>0.0</ele><time>2026-04-22T16:50:29Z</time></trkpt><trkpt lat="43.304854187434145" lon="10.492566665128251"><ele>0.0</ele><time>2026-04-22T16:50:33Z</time></trkpt><trkpt lat="43.30479525125187" lon="10.4926181073219"><ele>0.0</ele><time>2026-04-22T16:50:37Z</time></trkpt><trkpt lat="43.304734603895334" lon="10.492666502841972"><ele>0.0</ele><time>2026-04-22T16:50:41Z</time></trkpt><trkpt lat="43.30467114069139" lon="10.492710063194579"><ele>0.0</ele><time>2026-04-22T16:50:45Z</time></trkpt><trkpt lat="43.304606540938444" lon="10.492746297821167"><ele>0.0</ele><time>2026-04-22T16:50:49Z</time></trkpt><trkpt lat="43.30455024113168" lon="10.492795067458745"><ele>0.0</ele><time>2026-04-22T16:50:53Z</time></trkpt><trkpt lat="43.30448562580345" lon="10.492855566561206"><ele>0.0</ele><time>2026-04-22T16:50:58Z</time></trkpt><trkpt lat="43.3044271972998" lon="10.492904480432811"><ele>0.0</ele><time>2026-04-22T16:51:02Z</time></trkpt><trkpt lat="43.304365541451276" lon="10.492951576883389"><ele>0.0</ele><time>2026-04-22T16:51:06Z</time></trkpt><trkpt lat="43.30430243925476" lon="10.49299611652283"><ele>0.0</ele><time>2026-04-22T16:51:10Z</time></trkpt><trkpt lat="43.30424077963715" lon="10.49304954139926"><ele>0.0</ele><time>2026-04-22T16:51:14Z</time></trkpt><trkpt lat="43.30418108469668" lon="10.493096233763987"><ele>0.0</ele><time>2026-04-22T16:51:18Z</time></trkpt><trkpt lat="43.304124087810266" lon="10.493143301226553"><ele>0.0</ele><time>2026-04-22T16:51:22Z</time></trkpt><trkpt lat="43.304067965798545" lon="10.49318835008426"><ele>0.0</ele><time>2026-04-22T16:51:26Z</time></trkpt><trkpt lat="43.3040131431576" lon="10.493240801020734"><ele>0.0</ele><time>2026-04-22T16:51:30Z</time></trkpt><trkpt lat="43.30395752599372" lon="10.49328592173793"><ele>0.0</ele><time>2026-04-22T16:51:34Z</time></trkpt><trkpt lat="43.303891988742684" lon="10.493342731955392"><ele>0.0</ele><time>2026-04-22T16:51:39Z</time></trkpt><trkpt lat="43.30383532440412" lon="10.493385818569466"><ele>0.14285714285714285</ele><time>2026-04-22T16:51:43Z</time></trkpt><trkpt lat="43.30377965932252" lon="10.493431393309622"><ele>0.2857142857142857</ele><time>2026-04-22T16:51:47Z</time></trkpt><trkpt lat="43.30372380568033" lon="10.493476095266876"><ele>0.42857142857142855</ele><time>2026-04-22T16:51:51Z</time></trkpt><trkpt lat="43.30367046304753" lon="10.493522725875156"><ele>0.5714285714285714</ele><time>2026-04-22T16:51:55Z</time></trkpt><trkpt lat="43.303612640257285" lon="10.493567552531543"><ele>0.7142857142857142</ele><time>2026-04-22T16:51:59Z</time></trkpt><trkpt lat="43.30355765742904" lon="10.493615479706195"><ele>0.8571428571428571</ele><time>2026-04-22T16:52:03Z</time></trkpt><trkpt lat="43.30350032487322" lon="10.493661152827094"><ele>1.0</ele><time>2026-04-22T16:52:07Z</time></trkpt><trkpt lat="43.30344458945439" lon="10.4937063543127"><ele>1.1666666666666665</ele><time>2026-04-22T16:52:11Z</time></trkpt><trkpt lat="43.30337786109222" lon="10.493762759889488"><ele>1.3333333333333333</ele><time>2026-04-22T16:52:16Z</time></trkpt><trkpt lat="43.3033328709209" lon="10.493841952752355"><ele>1.5</ele><time>2026-04-22T16:52:21Z</time></trkpt><trkpt lat="43.303343102291855" lon="10.493931950394959"><ele>1.6666666666666665</ele><time>2026-04-22T16:52:26Z</time></trkpt><trkpt lat="43.30336141128216" lon="10.494032420844091"><ele>1.8333333333333333</ele><time>2026-04-22T16:52:31Z</time></trkpt><trkpt lat="43.30338002187446" lon="10.494138600999724"><ele>2.0</ele><time>2026-04-22T16:52:36Z</time></trkpt><trkpt lat="43.303398082562545" lon="10.494244701244053"><ele>2.0</ele><time>2026-04-22T16:52:41Z</time></trkpt><trkpt lat="43.3034121242982" lon="10.494333884395868"><ele>1.9999999999999998</ele><time>2026-04-22T16:52:45Z</time></trkpt><trkpt lat="43.30343008352352" lon="10.494423441454567"><ele>2.0</ele><time>2026-04-22T16:52:49Z</time></trkpt><trkpt lat="43.303449264832956" lon="10.494508228674668"><ele>2.0</ele><time>2026-04-22T16:52:53Z</time></trkpt><trkpt lat="43.303464808977964" lon="10.494596559191882"><ele>1.9999999999999998</ele><time>2026-04-22T16:52:57Z</time></trkpt><trkpt lat="43.30348210968063" lon="10.494685189432978"><ele>2.0</ele><time>2026-04-22T16:53:01Z</time></trkpt><trkpt lat="43.303500323158474" lon="10.494772379646747"><ele>2.0</ele><time>2026-04-22T16:53:05Z</time></trkpt><trkpt lat="43.30351920261221" lon="10.494859106520725"><ele>2.142857142857143</ele><time>2026-04-22T16:53:09Z</time></trkpt><trkpt lat="43.30353687454754" lon="10.49494857760959"><ele>2.2857142857142856</ele><time>2026-04-22T16:53:13Z</time></trkpt><trkpt lat="43.30355748289341" lon="10.495036973341442"><ele>2.4285714285714284</ele><time>2026-04-22T16:53:17Z</time></trkpt><trkpt lat="43.303590234445856" lon="10.49511667566641"><ele>2.571428571428571</ele><time>2026-04-22T16:53:21Z</time></trkpt><trkpt lat="43.303613388787035" lon="10.495198544320596"><ele>2.7142857142857144</ele><time>2026-04-22T16:53:25Z</time></trkpt><trkpt lat="43.30364195944153" lon="10.49527971679274"><ele>2.8571428571428568</ele><time>2026-04-22T16:53:29Z</time></trkpt><trkpt lat="43.30367116365843" lon="10.495357395413873"><ele>3.0</ele><time>2026-04-22T16:53:33Z</time></trkpt><trkpt lat="43.30371044585556" lon="10.49545034894345"><ele>3.1428571428571423</ele><time>2026-04-22T16:53:38Z</time></trkpt><trkpt lat="43.30374169198961" lon="10.49552846986594"><ele>3.2857142857142856</ele><time>2026-04-22T16:53:42Z</time></trkpt><trkpt lat="43.30378338566527" lon="10.495619707920044"><ele>3.4285714285714284</ele><time>2026-04-22T16:53:47Z</time></trkpt><trkpt lat="43.30381623562135" lon="10.495698142567827"><ele>3.571428571428571</ele><time>2026-04-22T16:53:51Z</time></trkpt><trkpt lat="43.303850474745985" lon="10.495775426987041"><ele>3.714285714285714</ele><time>2026-04-22T16:53:55Z</time></trkpt><trkpt lat="43.30388609439582" lon="10.49585090923572"><ele>3.8571428571428568</ele><time>2026-04-22T16:53:59Z</time></trkpt><trkpt lat="43.30392269141843" lon="10.495926288326038"><ele>4.0</ele><time>2026-04-22T16:54:03Z</time></trkpt><trkpt lat="43.303962775074595" lon="10.495999975413977"><ele>4.0</ele><time>2026-04-22T16:54:07Z</time></trkpt><trkpt lat="43.30400264208947" lon="10.49607204556387"><ele>3.9999999999999996</ele><time>2026-04-22T16:54:11Z</time></trkpt><trkpt lat="43.30404043036983" lon="10.496141479563248"><ele>4.0</ele><time>2026-04-22T16:54:15Z</time></trkpt><trkpt lat="43.30407777408571" lon="10.496211539086147"><ele>4.0</ele><time>2026-04-22T16:54:19Z</time></trkpt><trkpt lat="43.30411481005904" lon="10.496283186228464"><ele>3.9999999999999996</ele><time>2026-04-22T16:54:23Z</time></trkpt><trkpt lat="43.3041580066809" lon="10.496350122021083"><ele>4.0</ele><time>2026-04-22T16:54:27Z</time></trkpt><trkpt lat="43.30419971247423" lon="10.496417436282094"><ele>4.0</ele><time>2026-04-22T16:54:31Z</time></trkpt><trkpt lat="43.304244658946544" lon="10.49648335802234"><ele>4.142857142857142</ele><time>2026-04-22T16:54:35Z</time></trkpt><trkpt lat="43.30428969075758" lon="10.496550024339227"><ele>4.285714285714286</ele><time>2026-04-22T16:54:39Z</time></trkpt><trkpt lat="43.30433076877454" lon="10.49662207554329"><ele>4.428571428571429</ele><time>2026-04-22T16:54:43Z</time></trkpt><trkpt lat="43.30437377055108" lon="10.496691439599541"><ele>4.571428571428571</ele><time>2026-04-22T16:54:47Z</time></trkpt><trkpt lat="43.304428196880885" lon="10.496765066804008"><ele>4.714285714285714</ele><time>2026-04-22T16:54:51Z</time></trkpt><trkpt lat="43.304484206921266" lon="10.49683806223796"><ele>4.857142857142857</ele><time>2026-04-22T16:54:56Z</time></trkpt><trkpt lat="43.304533185566406" lon="10.496907997637944"><ele>5.0</ele><time>2026-04-22T16:55:00Z</time></trkpt><trkpt lat="43.30458043946286" lon="10.496976356902609"><ele>5.0</ele><time>2026-04-22T16:55:04Z</time></trkpt><trkpt lat="43.304628337832064" lon="10.497041762672701"><ele>5.0</ele><time>2026-04-22T16:55:08Z</time></trkpt><trkpt lat="43.304680818823236" lon="10.497102952742425"><ele>5.0</ele><time>2026-04-22T16:55:12Z</time></trkpt><trkpt lat="43.30473088165329" lon="10.497165976680046"><ele>5.0</ele><time>2026-04-22T16:55:16Z</time></trkpt><trkpt lat="43.30478565432848" lon="10.49722456882805"><ele>5.0</ele><time>2026-04-22T16:55:20Z</time></trkpt><trkpt lat="43.3048370900229" lon="10.497282287377306"><ele>5.0</ele><time>2026-04-22T16:55:24Z</time></trkpt><trkpt lat="43.304886979669696" lon="10.497340819049453"><ele>5.0</ele><time>2026-04-22T16:55:28Z</time></trkpt><trkpt lat="43.304940993690735" lon="10.497397485196759"><ele>4.571428571428571</ele><time>2026-04-22T16:55:32Z</time></trkpt><trkpt lat="43.30499610197512" lon="10.497453071146767"><ele>4.142857142857143</ele><time>2026-04-22T16:55:36Z</time></trkpt><trkpt lat="43.30505620077723" lon="10.497502186929573"><ele>3.7142857142857144</ele><time>2026-04-22T16:55:40Z</time></trkpt><trkpt lat="43.30511372892473" lon="10.49755065969164"><ele>3.2857142857142856</ele><time>2026-04-22T16:55:44Z</time></trkpt><trkpt lat="43.30517294396489" lon="10.497598682763957"><ele>2.8571428571428568</ele><time>2026-04-22T16:55:48Z</time></trkpt><trkpt lat="43.30522777739823" lon="10.497648776536053"><ele>2.4285714285714284</ele><time>2026-04-22T16:55:52Z</time></trkpt><trkpt lat="43.30528254374063" lon="10.497699778091594"><ele>2.0</ele><time>2026-04-22T16:55:56Z</time></trkpt><trkpt lat="43.30533800538863" lon="10.497749613030186"><ele>2.0</ele><time>2026-04-22T16:56:00Z</time></trkpt><trkpt lat="43.305392268243644" lon="10.497802581705102"><ele>1.9999999999999998</ele><time>2026-04-22T16:56:04Z</time></trkpt><trkpt lat="43.30544604789114" lon="10.497851800283884"><ele>2.0</ele><time>2026-04-22T16:56:08Z</time></trkpt><trkpt lat="43.30550363199754" lon="10.497897623641302"><ele>2.0</ele><time>2026-04-22T16:56:12Z</time></trkpt><trkpt lat="43.30555854748508" lon="10.497943950201188"><ele>1.9999999999999998</ele><time>2026-04-22T16:56:16Z</time></trkpt><trkpt lat="43.30562597342928" lon="10.49799399971581"><ele>2.0</ele><time>2026-04-22T16:56:21Z</time></trkpt><trkpt lat="43.305692217958615" lon="10.498037476382038"><ele>2.0</ele><time>2026-04-22T16:56:26Z</time></trkpt><trkpt lat="43.30574170665971" lon="10.498091328081454"><ele>2.142857142857143</ele><time>2026-04-22T16:56:30Z</time></trkpt><trkpt lat="43.305791955930346" lon="10.498149850124284"><ele>2.2857142857142856</ele><time>2026-04-22T16:56:34Z</time></trkpt><trkpt lat="43.30585279725096" lon="10.498213641878717"><ele>2.4285714285714284</ele><time>2026-04-22T16:56:39Z</time></trkpt><trkpt lat="43.30591248346235" lon="10.498274429218629"><ele>2.571428571428571</ele><time>2026-04-22T16:56:44Z</time></trkpt><trkpt lat="43.30597544941849" lon="10.498328820881756"><ele>2.7142857142857144</ele><time>2026-04-22T16:56:49Z</time></trkpt><trkpt lat="43.30603490450717" lon="10.498372616721232"><ele>2.8571428571428568</ele><time>2026-04-22T16:56:53Z</time></trkpt><trkpt lat="43.306091018027175" lon="10.498421703141554"><ele>3.0</ele><time>2026-04-22T16:56:57Z</time></trkpt><trkpt lat="43.306148602054655" lon="10.498468569538751"><ele>2.9999999999999996</ele><time>2026-04-22T16:57:01Z</time></trkpt><trkpt lat="43.30620110085259" lon="10.498521482530272"><ele>3.0</ele><time>2026-04-22T16:57:05Z</time></trkpt><trkpt lat="43.30625992676482" lon="10.498569126953415"><ele>3.0</ele><time>2026-04-22T16:57:09Z</time></trkpt><trkpt lat="43.306315015313444" lon="10.498618618095898"><ele>3.0</ele><time>2026-04-22T16:57:13Z</time></trkpt><trkpt lat="43.30637415486679" lon="10.498663339486534"><ele>3.0</ele><time>2026-04-22T16:57:17Z</time></trkpt><trkpt lat="43.30643021054981" lon="10.498712455047421"><ele>2.9999999999999996</ele><time>2026-04-22T16:57:21Z</time></trkpt><trkpt lat="43.30648901001624" lon="10.498760786437634"><ele>3.0</ele><time>2026-04-22T16:57:25Z</time></trkpt><trkpt lat="43.30654594673445" lon="10.498809668491043"><ele>2.714285714285714</ele><time>2026-04-22T16:57:29Z</time></trkpt><trkpt lat="43.306601577816224" lon="10.498857023410185"><ele>2.4285714285714284</ele><time>2026-04-22T16:57:33Z</time></trkpt><trkpt lat="43.30665593371364" lon="10.498905567382877"><ele>2.142857142857143</ele><time>2026-04-22T16:57:37Z</time></trkpt><trkpt lat="43.30671182971998" lon="10.498952865902597"><ele>1.857142857142857</ele><time>2026-04-22T16:57:41Z</time></trkpt><trkpt lat="43.306776601057564" lon="10.49900844551952"><ele>1.5714285714285712</ele><time>2026-04-22T16:57:46Z</time></trkpt><trkpt lat="43.30683055424948" lon="10.499053175176295"><ele>1.2857142857142856</ele><time>2026-04-22T16:57:50Z</time></trkpt><trkpt lat="43.30688471370094" lon="10.499098051272442"><ele>1.0</ele><time>2026-04-22T16:57:54Z</time></trkpt><trkpt lat="43.306949628768045" lon="10.499153280795353"><ele>1.0</ele><time>2026-04-22T16:57:59Z</time></trkpt><trkpt lat="43.30701289206674" lon="10.499206041410886"><ele>0.9999999999999999</ele><time>2026-04-22T16:58:04Z</time></trkpt><trkpt lat="43.30707629764277" lon="10.499259694110183"><ele>1.0</ele><time>2026-04-22T16:58:09Z</time></trkpt><trkpt lat="43.30713749437974" lon="10.49929809556315"><ele>1.0</ele><time>2026-04-22T16:58:13Z</time></trkpt><trkpt lat="43.307199856598764" lon="10.499344319719269"><ele>0.9999999999999999</ele><time>2026-04-22T16:58:18Z</time></trkpt><trkpt lat="43.307261011576415" lon="10.499406863959692"><ele>1.0</ele><time>2026-04-22T16:58:22Z</time></trkpt><trkpt lat="43.30731567485885" lon="10.499467199862734"><ele>1.0</ele><time>2026-04-22T16:58:26Z</time></trkpt><trkpt lat="43.30737333113464" lon="10.499522278026154"><ele>1.0</ele><time>2026-04-22T16:58:30Z</time></trkpt><trkpt lat="43.30742993185706" lon="10.499580376858745"><ele>0.9999999999999999</ele><time>2026-04-22T16:58:34Z</time></trkpt><trkpt lat="43.30748625832186" lon="10.499634601554352"><ele>1.0</ele><time>2026-04-22T16:58:38Z</time></trkpt><trkpt lat="43.307543461857755" lon="10.49968584480825"><ele>1.0</ele><time>2026-04-22T16:58:42Z</time></trkpt><trkpt lat="43.30759942809406" lon="10.499738995373551"><ele>0.9999999999999999</ele><time>2026-04-22T16:58:46Z</time></trkpt><trkpt lat="43.30765980595529" lon="10.499789037082301"><ele>1.0</ele><time>2026-04-22T16:58:50Z</time></trkpt><trkpt lat="43.30771686685748" lon="10.499835676234584"><ele>1.0</ele><time>2026-04-22T16:58:54Z</time></trkpt><trkpt lat="43.30777802580844" lon="10.499885653848722"><ele>1.0</ele><time>2026-04-22T16:58:58Z</time></trkpt><trkpt lat="43.307834684110816" lon="10.49994031082713"><ele>0.9999999999999999</ele><time>2026-04-22T16:59:02Z</time></trkpt><trkpt lat="43.3078912793808" lon="10.499992208868672"><ele>1.0</ele><time>2026-04-22T16:59:06Z</time></trkpt><trkpt lat="43.30794782066289" lon="10.500037912325267"><ele>1.0</ele><time>2026-04-22T16:59:10Z</time></trkpt><trkpt lat="43.30800399315914" lon="10.500087962856922"><ele>0.9999999999999999</ele><time>2026-04-22T16:59:14Z</time></trkpt><trkpt lat="43.30806089255942" lon="10.500135456838825"><ele>1.0</ele><time>2026-04-22T16:59:18Z</time></trkpt><trkpt lat="43.30811588033264" lon="10.500179555288298"><ele>1.0</ele><time>2026-04-22T16:59:22Z</time></trkpt><trkpt lat="43.30817392757994" lon="10.500221435567365"><ele>1.0</ele><time>2026-04-22T16:59:26Z</time></trkpt><trkpt lat="43.30823375625449" lon="10.500268172964798"><ele>0.9999999999999999</ele><time>2026-04-22T16:59:30Z</time></trkpt><trkpt lat="43.308292512665744" lon="10.500316660718047"><ele>1.0</ele><time>2026-04-22T16:59:34Z</time></trkpt><trkpt lat="43.30835289282465" lon="10.500359466230657"><ele>1.0</ele><time>2026-04-22T16:59:38Z</time></trkpt><trkpt lat="43.30841380213991" lon="10.500405515243363"><ele>0.9999999999999999</ele><time>2026-04-22T16:59:42Z</time></trkpt><trkpt lat="43.30847457578684" lon="10.500448739030524"><ele>1.0</ele><time>2026-04-22T16:59:46Z</time></trkpt><trkpt lat="43.30853583513718" lon="10.500489076725842"><ele>1.0</ele><time>2026-04-22T16:59:50Z</time></trkpt><trkpt lat="43.308597360653685" lon="10.500532286428461"><ele>1.0</ele><time>2026-04-22T16:59:54Z</time></trkpt><trkpt lat="43.30865646898925" lon="10.500569726684807"><ele>0.9999999999999999</ele><time>2026-04-22T16:59:58Z</time></trkpt><trkpt lat="43.308714817095755" lon="10.500606323265725"><ele>1.0</ele><time>2026-04-22T17:00:02Z</time></trkpt><trkpt lat="43.30877257893261" lon="10.500644652440005"><ele>1.0</ele><time>2026-04-22T17:00:06Z</time></trkpt><trkpt lat="43.3088318258972" lon="10.500676656572928"><ele>0.9999999999999999</ele><time>2026-04-22T17:00:10Z</time></trkpt><trkpt lat="43.308892202240784" lon="10.500710982328965"><ele>1.0</ele><time>2026-04-22T17:00:14Z</time></trkpt><trkpt lat="43.30896421554503" lon="10.500754698301577"><ele>1.0</ele><time>2026-04-22T17:00:19Z</time></trkpt><trkpt lat="43.309022939285306" lon="10.500790445564984"><ele>1.0</ele><time>2026-04-22T17:00:23Z</time></trkpt><trkpt lat="43.30908352839678" lon="10.500824344361503"><ele>0.9999999999999999</ele><time>2026-04-22T17:00:27Z</time></trkpt><trkpt lat="43.30914448550981" lon="10.500857883933934"><ele>1.0</ele><time>2026-04-22T17:00:31Z</time></trkpt><trkpt lat="43.30920437918131" lon="10.500892691581965"><ele>1.0</ele><time>2026-04-22T17:00:35Z</time></trkpt><trkpt lat="43.30926788959807" lon="10.500924144586731"><ele>0.9999999999999999</ele><time>2026-04-22T17:00:39Z</time></trkpt><trkpt lat="43.30932859399275" lon="10.500957864390474"><ele>1.0</ele><time>2026-04-22T17:00:43Z</time></trkpt><trkpt lat="43.309390685697075" lon="10.50099332314085"><ele>1.0</ele><time>2026-04-22T17:00:47Z</time></trkpt><trkpt lat="43.3094544153657" lon="10.501026238730981"><ele>1.0</ele><time>2026-04-22T17:00:51Z</time></trkpt><trkpt lat="43.30951651069086" lon="10.501061731976511"><ele>0.9999999999999999</ele><time>2026-04-22T17:00:55Z</time></trkpt><trkpt lat="43.309577075640306" lon="10.501098183757943"><ele>1.0</ele><time>2026-04-22T17:00:59Z</time></trkpt><trkpt lat="43.30964010394397" lon="10.501128187217194"><ele>1.0</ele><time>2026-04-22T17:01:03Z</time></trkpt><trkpt lat="43.30970276289776" lon="10.501164327452873"><ele>0.9999999999999999</ele><time>2026-04-22T17:01:07Z</time></trkpt><trkpt lat="43.30976529757409" lon="10.50119874602369"><ele>1.0</ele><time>2026-04-22T17:01:11Z</time></trkpt><trkpt lat="43.30982616176396" lon="10.501236128734547"><ele>1.0</ele><time>2026-04-22T17:01:15Z</time></trkpt><trkpt lat="43.309887678164095" lon="10.501267820658057"><ele>1.0</ele><time>2026-04-22T17:01:19Z</time></trkpt><trkpt lat="43.30994908859418" lon="10.50129999006053"><ele>0.9999999999999999</ele><time>2026-04-22T17:01:23Z</time></trkpt><trkpt lat="43.31000876503645" lon="10.501334152258352"><ele>1.0</ele><time>2026-04-22T17:01:27Z</time></trkpt><trkpt lat="43.310071700831315" lon="10.501366435140294"><ele>1.0</ele><time>2026-04-22T17:01:31Z</time></trkpt><trkpt lat="43.31013051174859" lon="10.501403377892764"><ele>0.9999999999999999</ele><time>2026-04-22T17:01:35Z</time></trkpt><trkpt lat="43.31020352518329" lon="10.50144066952262"><ele>1.0</ele><time>2026-04-22T17:01:40Z</time></trkpt><trkpt lat="43.31027523601692" lon="10.501477952180279"><ele>1.0</ele><time>2026-04-22T17:01:45Z</time></trkpt><trkpt lat="43.310340828727846" lon="10.50152214589992"><ele>1.0</ele><time>2026-04-22T17:01:49Z</time></trkpt><trkpt lat="43.310406403352765" lon="10.501569491474644"><ele>0.9999999999999999</ele><time>2026-04-22T17:01:53Z</time></trkpt><trkpt lat="43.31047566115383" lon="10.501603243885638"><ele>1.0</ele><time>2026-04-22T17:01:57Z</time></trkpt><trkpt lat="43.310537356222206" lon="10.50163525212357"><ele>1.0</ele><time>2026-04-22T17:02:01Z</time></trkpt><trkpt lat="43.31059690515319" lon="10.501667888557344"><ele>0.9999999999999999</ele><time>2026-04-22T17:02:05Z</time></trkpt><trkpt lat="43.31065604815465" lon="10.501700685006764"><ele>1.0</ele><time>2026-04-22T17:02:09Z</time></trkpt><trkpt lat="43.31071683171698" lon="10.501734449021463"><ele>1.0</ele><time>2026-04-22T17:02:13Z</time></trkpt><trkpt lat="43.31077863593126" lon="10.501768120555548"><ele>1.1428571428571428</ele><time>2026-04-22T17:02:17Z</time></trkpt><trkpt lat="43.310839786628705" lon="10.501801633668991"><ele>1.2857142857142856</ele><time>2026-04-22T17:02:21Z</time></trkpt><trkpt lat="43.31089990180561" lon="10.501831671070349"><ele>1.4285714285714284</ele><time>2026-04-22T17:02:25Z</time></trkpt><trkpt lat="43.310959076681215" lon="10.501864013386708"><ele>1.5714285714285714</ele><time>2026-04-22T17:02:29Z</time></trkpt><trkpt lat="43.31102696100407" lon="10.501910364324557"><ele>1.714285714285714</ele><time>2026-04-22T17:02:34Z</time></trkpt><trkpt lat="43.31109680260113" lon="10.501949017003657"><ele>1.857142857142857</ele><time>2026-04-22T17:02:39Z</time></trkpt><trkpt lat="43.31115214839192" lon="10.501992072858696"><ele>2.0</ele><time>2026-04-22T17:02:43Z</time></trkpt><trkpt lat="43.311210904711515" lon="10.502029320783308"><ele>2.0</ele><time>2026-04-22T17:02:47Z</time></trkpt><trkpt lat="43.31126780343476" lon="10.502071439175655"><ele>1.9999999999999998</ele><time>2026-04-22T17:02:51Z</time></trkpt><trkpt lat="43.31133392262582" lon="10.502128634784487"><ele>2.0</ele><time>2026-04-22T17:02:56Z</time></trkpt><trkpt lat="43.311399543590916" lon="10.502187002672798"><ele>2.0</ele><time>2026-04-22T17:03:01Z</time></trkpt><trkpt lat="43.311450991641195" lon="10.502241149435092"><ele>1.9999999999999998</ele><time>2026-04-22T17:03:05Z</time></trkpt><trkpt lat="43.31149659779952" lon="10.502302330970823"><ele>2.0</ele><time>2026-04-22T17:03:09Z</time></trkpt><trkpt lat="43.31154683062011" lon="10.50236145007539"><ele>2.0</ele><time>2026-04-22T17:03:13Z</time></trkpt><trkpt lat="43.31159170509763" lon="10.502424245734003"><ele>2.0</ele><time>2026-04-22T17:03:17Z</time></trkpt><trkpt lat="43.311634588785935" lon="10.50248812252132"><ele>1.9999999999999998</ele><time>2026-04-22T17:03:21Z</time></trkpt><trkpt lat="43.31168241673775" lon="10.50256642696284"><ele>2.0</ele><time>2026-04-22T17:03:26Z</time></trkpt><trkpt lat="43.31172583242459" lon="10.50263112894324"><ele>2.0</ele><time>2026-04-22T17:03:30Z</time></trkpt><trkpt lat="43.311765262739016" lon="10.50269885663989"><ele>1.9999999999999998</ele><time>2026-04-22T17:03:34Z</time></trkpt><trkpt lat="43.31180326754126" lon="10.502772711827898"><ele>2.0</ele><time>2026-04-22T17:03:38Z</time></trkpt><trkpt lat="43.31183945943858" lon="10.502846516169623"><ele>2.0</ele><time>2026-04-22T17:03:42Z</time></trkpt><trkpt lat="43.3118744390271" lon="10.502923268943588"><ele>1.857142857142857</ele><time>2026-04-22T17:03:46Z</time></trkpt><trkpt lat="43.31190877482022" lon="10.503001872942292"><ele>1.714285714285714</ele><time>2026-04-22T17:03:50Z</time></trkpt><trkpt lat="43.311939126972526" lon="10.503081286247317"><ele>1.5714285714285714</ele><time>2026-04-22T17:03:54Z</time></trkpt><trkpt lat="43.311971479758164" lon="10.5031570958319"><ele>1.4285714285714284</ele><time>2026-04-22T17:03:58Z</time></trkpt><trkpt lat="43.312000257707965" lon="10.503237532824599"><ele>1.2857142857142856</ele><time>2026-04-22T17:04:02Z</time></trkpt><trkpt lat="43.3120276379289" lon="10.503318268326707"><ele>1.1428571428571428</ele><time>2026-04-22T17:04:06Z</time></trkpt><trkpt lat="43.31205731686537" lon="10.503404598730965"><ele>1.0</ele><time>2026-04-22T17:04:10Z</time></trkpt><trkpt lat="43.312087769511066" lon="10.503488267767526"><ele>1.0</ele><time>2026-04-22T17:04:14Z</time></trkpt><trkpt lat="43.31211639553206" lon="10.503572503102124"><ele>0.9999999999999999</ele><time>2026-04-22T17:04:18Z</time></trkpt><trkpt lat="43.312144152246105" lon="10.503659633272003"><ele>1.0</ele><time>2026-04-22T17:04:22Z</time></trkpt><trkpt lat="43.312177053069725" lon="10.503741351230431"><ele>1.0</ele><time>2026-04-22T17:04:26Z</time></trkpt><trkpt lat="43.31220412931987" lon="10.503825605470643"><ele>0.9999999999999999</ele><time>2026-04-22T17:04:30Z</time></trkpt><trkpt lat="43.31223359277292" lon="10.503910079567419"><ele>1.0</ele><time>2026-04-22T17:04:34Z</time></trkpt><trkpt lat="43.312263413739295" lon="10.50399200111993"><ele>1.0</ele><time>2026-04-22T17:04:38Z</time></trkpt><trkpt lat="43.31229081860349" lon="10.504075927412641"><ele>1.2857142857142856</ele><time>2026-04-22T17:04:42Z</time></trkpt><trkpt lat="43.3123189841407" lon="10.504158975776399"><ele>1.5714285714285712</ele><time>2026-04-22T17:04:46Z</time></trkpt><trkpt lat="43.312343850486876" lon="10.504240425499379"><ele>1.857142857142857</ele><time>2026-04-22T17:04:50Z</time></trkpt><trkpt lat="43.31237269458126" lon="10.504321911639686"><ele>2.142857142857143</ele><time>2026-04-22T17:04:54Z</time></trkpt><trkpt lat="43.3124029476015" lon="10.504400410610925"><ele>2.4285714285714284</ele><time>2026-04-22T17:04:58Z</time></trkpt><trkpt lat="43.31242942314154" lon="10.504487465680146"><ele>2.714285714285714</ele><time>2026-04-22T17:05:02Z</time></trkpt><trkpt lat="43.3124616817584" lon="10.504566618283446"><ele>3.0</ele><time>2026-04-22T17:05:06Z</time></trkpt><trkpt lat="43.31248756215038" lon="10.504651516973114"><ele>2.9999999999999996</ele><time>2026-04-22T17:05:10Z</time></trkpt><trkpt lat="43.31251714675561" lon="10.50473156680765"><ele>3.0</ele><time>2026-04-22T17:05:14Z</time></trkpt><trkpt lat="43.31254198272682" lon="10.5048171643572"><ele>3.0</ele><time>2026-04-22T17:05:18Z</time></trkpt><trkpt lat="43.31256640031763" lon="10.504902804987605"><ele>3.0</ele><time>2026-04-22T17:05:22Z</time></trkpt><trkpt lat="43.312591678709936" lon="10.504987166870544"><ele>3.0</ele><time>2026-04-22T17:05:26Z</time></trkpt><trkpt lat="43.31261143478835" lon="10.505071713716047"><ele>2.9999999999999996</ele><time>2026-04-22T17:05:30Z</time></trkpt><trkpt lat="43.31263317971244" lon="10.505156359339876"><ele>3.0</ele><time>2026-04-22T17:05:34Z</time></trkpt><trkpt lat="43.312645449853584" lon="10.505246943375703"><ele>2.9999999999999996</ele><time>2026-04-22T17:05:38Z</time></trkpt><trkpt lat="43.31265728317588" lon="10.505336090895595"><ele>3.0</ele><time>2026-04-22T17:05:42Z</time></trkpt><trkpt lat="43.31266891124714" lon="10.5054279347396"><ele>3.0</ele><time>2026-04-22T17:05:46Z</time></trkpt><trkpt lat="43.312677168789605" lon="10.505518952780958"><ele>3.0</ele><time>2026-04-22T17:05:50Z</time></trkpt><trkpt lat="43.31268318619122" lon="10.505608687589392"><ele>3.0</ele><time>2026-04-22T17:05:54Z</time></trkpt><trkpt lat="43.31268639316412" lon="10.505699203682125"><ele>2.9999999999999996</ele><time>2026-04-22T17:05:58Z</time></trkpt><trkpt lat="43.312692107870255" lon="10.505792599598456"><ele>3.0</ele><time>2026-04-22T17:06:02Z</time></trkpt><trkpt lat="43.312693442540585" lon="10.505885092651825"><ele>2.8571428571428568</ele><time>2026-04-22T17:06:06Z</time></trkpt><trkpt lat="43.31269213473369" lon="10.505976595574387"><ele>2.7142857142857144</ele><time>2026-04-22T17:06:10Z</time></trkpt><trkpt lat="43.31269228729938" lon="10.506069975129533"><ele>2.571428571428571</ele><time>2026-04-22T17:06:14Z</time></trkpt><trkpt lat="43.3126936314292" lon="10.506163967782324"><ele>2.4285714285714284</ele><time>2026-04-22T17:06:18Z</time></trkpt><trkpt lat="43.31269372418785" lon="10.506260659563905"><ele>2.2857142857142856</ele><time>2026-04-22T17:06:22Z</time></trkpt><trkpt lat="43.3126926339756" lon="10.50635692214981"><ele>2.142857142857143</ele><time>2026-04-22T17:06:26Z</time></trkpt><trkpt lat="43.31269367564295" lon="10.50644938765772"><ele>2.0</ele><time>2026-04-22T17:06:30Z</time></trkpt><trkpt lat="43.312694103627145" lon="10.506540384905643"><ele>2.0</ele><time>2026-04-22T17:06:34Z</time></trkpt><trkpt lat="43.312694597909314" lon="10.50663032331063"><ele>1.9999999999999998</ele><time>2026-04-22T17:06:38Z</time></trkpt><trkpt lat="43.312694757777585" lon="10.506720271556453"><ele>2.0</ele><time>2026-04-22T17:06:42Z</time></trkpt><trkpt lat="43.31269615085211" lon="10.506810824163505"><ele>2.0</ele><time>2026-04-22T17:06:46Z</time></trkpt><trkpt lat="43.312694840200535" lon="10.506901496286007"><ele>1.9999999999999998</ele><time>2026-04-22T17:06:50Z</time></trkpt><trkpt lat="43.31269561072533" lon="10.506990203687463"><ele>2.0</ele><time>2026-04-22T17:06:54Z</time></trkpt><trkpt lat="43.31269861610894" lon="10.507080099152674"><ele>2.0</ele><time>2026-04-22T17:06:58Z</time></trkpt><trkpt lat="43.312698204107456" lon="10.507170537464356"><ele>2.0</ele><time>2026-04-22T17:07:02Z</time></trkpt><trkpt lat="43.31269682385458" lon="10.50726048986527"><ele>1.9999999999999998</ele><time>2026-04-22T17:07:06Z</time></trkpt><trkpt lat="43.312697292406654" lon="10.507348470893776"><ele>2.0</ele><time>2026-04-22T17:07:10Z</time></trkpt><trkpt lat="43.31270203503489" lon="10.507439782580809"><ele>2.0</ele><time>2026-04-22T17:07:14Z</time></trkpt><trkpt lat="43.31270318909791" lon="10.507532486268696"><ele>1.9999999999999998</ele><time>2026-04-22T17:07:18Z</time></trkpt><trkpt lat="43.3127049909523" lon="10.507624323755572"><ele>2.0</ele><time>2026-04-22T17:07:22Z</time></trkpt><trkpt lat="43.312706257303255" lon="10.507715966428467"><ele>2.0</ele><time>2026-04-22T17:07:26Z</time></trkpt><trkpt lat="43.3127086954189" lon="10.507806020514536"><ele>2.0</ele><time>2026-04-22T17:07:30Z</time></trkpt><trkpt lat="43.31271153589105" lon="10.507900866676163"><ele>1.9999999999999998</ele><time>2026-04-22T17:07:34Z</time></trkpt><trkpt lat="43.31271703266116" lon="10.507995998967193"><ele>2.0</ele><time>2026-04-22T17:07:38Z</time></trkpt><trkpt lat="43.31272483170123" lon="10.508088406278832"><ele>2.0</ele><time>2026-04-22T17:07:42Z</time></trkpt><trkpt lat="43.31273322789786" lon="10.508184857557263"><ele>1.9999999999999998</ele><time>2026-04-22T17:07:46Z</time></trkpt><trkpt lat="43.31274491159433" lon="10.508278423201837"><ele>2.0</ele><time>2026-04-22T17:07:50Z</time></trkpt><trkpt lat="43.31275733960177" lon="10.508367520268608"><ele>2.0</ele><time>2026-04-22T17:07:54Z</time></trkpt><trkpt lat="43.31277039002802" lon="10.508457776100576"><ele>2.142857142857143</ele><time>2026-04-22T17:07:58Z</time></trkpt><trkpt lat="43.31278588452967" lon="10.508549601930289"><ele>2.2857142857142856</ele><time>2026-04-22T17:08:02Z</time></trkpt><trkpt lat="43.31280056166698" lon="10.508639019235373"><ele>2.4285714285714284</ele><time>2026-04-22T17:08:06Z</time></trkpt><trkpt lat="43.312822518146774" lon="10.508741394096418"><ele>2.571428571428571</ele><time>2026-04-22T17:08:11Z</time></trkpt><trkpt lat="43.312837587874064" lon="10.508832043027928"><ele>2.7142857142857144</ele><time>2026-04-22T17:08:15Z</time></trkpt><trkpt lat="43.31285731651028" lon="10.508920977492814"><ele>2.8571428571428568</ele><time>2026-04-22T17:08:19Z</time></trkpt><trkpt lat="43.31287243119202" lon="10.509008011918718"><ele>3.0</ele><time>2026-04-22T17:08:23Z</time></trkpt><trkpt lat="43.31289327552044" lon="10.509110961451508"><ele>2.9999999999999996</ele><time>2026-04-22T17:08:28Z</time></trkpt><trkpt lat="43.31291769662165" lon="10.5092067719526"><ele>3.0</ele><time>2026-04-22T17:08:33Z</time></trkpt><trkpt lat="43.312933938436394" lon="10.509308036134968"><ele>3.0</ele><time>2026-04-22T17:08:38Z</time></trkpt><trkpt lat="43.312953106856106" lon="10.50941275101657"><ele>3.0</ele><time>2026-04-22T17:08:43Z</time></trkpt><trkpt lat="43.31297180303559" lon="10.509500164099986"><ele>3.0</ele><time>2026-04-22T17:08:47Z</time></trkpt><trkpt lat="43.31298691966174" lon="10.509591267536694"><ele>2.9999999999999996</ele><time>2026-04-22T17:08:51Z</time></trkpt><trkpt lat="43.31300508402947" lon="10.509686051308837"><ele>3.0</ele><time>2026-04-22T17:08:55Z</time></trkpt><trkpt lat="43.31302680597481" lon="10.509773996445132"><ele>2.9999999999999996</ele><time>2026-04-22T17:08:59Z</time></trkpt><trkpt lat="43.31304600993211" lon="10.509862644211577"><ele>3.0</ele><time>2026-04-22T17:09:03Z</time></trkpt><trkpt lat="43.313062890388885" lon="10.509950414398276"><ele>3.0</ele><time>2026-04-22T17:09:07Z</time></trkpt><trkpt lat="43.31308129092728" lon="10.510041500039058"><ele>3.0</ele><time>2026-04-22T17:09:11Z</time></trkpt><trkpt lat="43.31309394878278" lon="10.510131660638136"><ele>3.0</ele><time>2026-04-22T17:09:15Z</time></trkpt><trkpt lat="43.3131110828647" lon="10.510224012948044"><ele>2.9999999999999996</ele><time>2026-04-22T17:09:19Z</time></trkpt><trkpt lat="43.31312629290681" lon="10.510317441555118"><ele>3.0</ele><time>2026-04-22T17:09:23Z</time></trkpt><trkpt lat="43.31314414827302" lon="10.510406687083762"><ele>2.9999999999999996</ele><time>2026-04-22T17:09:27Z</time></trkpt><trkpt lat="43.31316244025928" lon="10.510492445667225"><ele>3.0</ele><time>2026-04-22T17:09:31Z</time></trkpt><trkpt lat="43.313179994544306" lon="10.510576525684119"><ele>3.0</ele><time>2026-04-22T17:09:35Z</time></trkpt><trkpt lat="43.31319311993982" lon="10.510661594676135"><ele>3.0</ele><time>2026-04-22T17:09:39Z</time></trkpt><trkpt lat="43.31321355200965" lon="10.510766536946043"><ele>3.0</ele><time>2026-04-22T17:09:44Z</time></trkpt><trkpt lat="43.31323095860096" lon="10.510852500788378"><ele>2.9999999999999996</ele><time>2026-04-22T17:09:48Z</time></trkpt><trkpt lat="43.313273726109145" lon="10.510923199185978"><ele>3.0</ele><time>2026-04-22T17:09:52Z</time></trkpt><trkpt lat="43.31334967930438" lon="10.5109514554074"><ele>2.9999999999999996</ele><time>2026-04-22T17:09:57Z</time></trkpt><trkpt lat="43.313412884642425" lon="10.510978806409403"><ele>3.0</ele><time>2026-04-22T17:10:01Z</time></trkpt><trkpt lat="43.313480631184156" lon="10.511027084666084"><ele>3.0</ele><time>2026-04-22T17:10:06Z</time></trkpt><trkpt lat="43.313520118824556" lon="10.511096993110193"><ele>3.0</ele><time>2026-04-22T17:10:10Z</time></trkpt><trkpt lat="43.31355022280866" lon="10.511179823213242"><ele>3.0</ele><time>2026-04-22T17:10:14Z</time></trkpt><trkpt lat="43.31358255968376" lon="10.511259464830069"><ele>2.9999999999999996</ele><time>2026-04-22T17:10:18Z</time></trkpt><trkpt lat="43.3136083460317" lon="10.511343149640382"><ele>3.0</ele><time>2026-04-22T17:10:22Z</time></trkpt><trkpt lat="43.31364102561315" lon="10.511440957023598"><ele>4.0</ele><time>2026-04-22T17:10:27Z</time></trkpt><trkpt lat="43.31367266490904" lon="10.5115331864034"><ele>5.0</ele><time>2026-04-22T17:10:32Z</time></trkpt><trkpt lat="43.31369679836556" lon="10.511625199176633"><ele>6.0</ele><time>2026-04-22T17:10:37Z</time></trkpt><trkpt lat="43.31373111022883" lon="10.511709034025408"><ele>7.0</ele><time>2026-04-22T17:10:42Z</time></trkpt><trkpt lat="43.31376472114776" lon="10.511803668073549"><ele>8.0</ele><time>2026-04-22T17:10:47Z</time></trkpt><trkpt lat="43.313787440645356" lon="10.51189067731324"><ele>9.0</ele><time>2026-04-22T17:10:53Z</time></trkpt><trkpt lat="43.31378407062679" lon="10.512026537453371"><ele>9.166666666666666</ele><time>2026-04-22T17:10:59Z</time></trkpt><trkpt lat="43.31381883860279" lon="10.512125037081898"><ele>9.333333333333334</ele><time>2026-04-22T17:11:01Z</time></trkpt><trkpt lat="43.31387544973656" lon="10.51218343492689"><ele>9.5</ele><time>2026-04-22T17:11:10Z</time></trkpt><trkpt lat="43.313884466698354" lon="10.512293503616647"><ele>9.666666666666668</ele><time>2026-04-22T17:11:14Z</time></trkpt><trkpt lat="43.31389180571573" lon="10.51240523133616"><ele>9.833333333333334</ele><time>2026-04-22T17:11:18Z</time></trkpt><trkpt lat="43.31388658483712" lon="10.512510005222493"><ele>10.0</ele><time>2026-04-22T17:11:22Z</time></trkpt><trkpt lat="43.313864722162776" lon="10.51261014399431"><ele>10.0</ele><time>2026-04-22T17:11:26Z</time></trkpt><trkpt lat="43.31382572221856" lon="10.512699384891139"><ele>10.0</ele><time>2026-04-22T17:11:30Z</time></trkpt><trkpt lat="43.31380758538047" lon="10.51279204445284"><ele>10.0</ele><time>2026-04-22T17:11:34Z</time></trkpt><trkpt lat="43.31382619506058" lon="10.512884089651694"><ele>10.0</ele><time>2026-04-22T17:11:38Z</time></trkpt><trkpt lat="43.31386049786615" lon="10.512979560640593"><ele>10.0</ele><time>2026-04-22T17:11:43Z</time></trkpt><trkpt lat="43.313897271333154" lon="10.513058666033947"><ele>10.0</ele><time>2026-04-22T17:11:48Z</time></trkpt><trkpt lat="43.31392047161897" lon="10.513139195446206"><ele>10.0</ele><time>2026-04-22T17:11:52Z</time></trkpt><trkpt lat="43.31394701546133" lon="10.51322066358937"><ele>9.571428571428571</ele><time>2026-04-22T17:11:56Z</time></trkpt><trkpt lat="43.313983448689726" lon="10.513314176442915"><ele>9.142857142857142</ele><time>2026-04-22T17:12:01Z</time></trkpt><trkpt lat="43.314015497545334" lon="10.513402503440517"><ele>8.714285714285715</ele><time>2026-04-22T17:12:06Z</time></trkpt><trkpt lat="43.31402057322881" lon="10.51349459593981"><ele>8.285714285714285</ele><time>2026-04-22T17:12:11Z</time></trkpt><trkpt lat="43.313998565333044" lon="10.513580416858714"><ele>7.857142857142858</ele><time>2026-04-22T17:12:15Z</time></trkpt><trkpt lat="43.31396281759267" lon="10.51365640272579"><ele>7.428571428571429</ele><time>2026-04-22T17:12:19Z</time></trkpt><trkpt lat="43.313921429719585" lon="10.513732863952292"><ele>7.0</ele><time>2026-04-22T17:12:23Z</time></trkpt><trkpt lat="43.313915840544254" lon="10.513835956507844"><ele>7.0</ele><time>2026-04-22T17:12:28Z</time></trkpt><trkpt lat="43.3139435761415" lon="10.51392475661165"><ele>7.0</ele><time>2026-04-22T17:12:33Z</time></trkpt><trkpt lat="43.31399745716217" lon="10.51398585723662"><ele>7.0</ele><time>2026-04-22T17:12:39Z</time></trkpt><trkpt lat="43.31406025661919" lon="10.514028396894908"><ele>7.0</ele><time>2026-04-22T17:12:47Z</time></trkpt><trkpt lat="43.31410728219749" lon="10.514104915275054"><ele>7.0</ele><time>2026-04-22T17:12:53Z</time></trkpt><trkpt lat="43.314155628818945" lon="10.514184820714929"><ele>7.0</ele><time>2026-04-22T17:12:58Z</time></trkpt><trkpt lat="43.314192670862134" lon="10.51427446293902"><ele>7.0</ele><time>2026-04-22T17:13:03Z</time></trkpt><trkpt lat="43.314205417305324" lon="10.514363101516926"><ele>7.0</ele><time>2026-04-22T17:13:08Z</time></trkpt><trkpt lat="43.31423888704126" lon="10.514459513130458"><ele>7.0</ele><time>2026-04-22T17:13:12Z</time></trkpt><trkpt lat="43.31426132022318" lon="10.514549742598893"><ele>7.0</ele><time>2026-04-22T17:13:16Z</time></trkpt><trkpt lat="43.3142754105927" lon="10.514646607173313"><ele>7.0</ele><time>2026-04-22T17:13:20Z</time></trkpt><trkpt lat="43.31424449795699" lon="10.51474148229586"><ele>7.0</ele><time>2026-04-22T17:13:25Z</time></trkpt><trkpt lat="43.31423102484067" lon="10.514832167423549"><ele>7.0</ele><time>2026-04-22T17:13:31Z</time></trkpt><trkpt lat="43.314227419422956" lon="10.514943547459938"><ele>7.0</ele><time>2026-04-22T17:13:36Z</time></trkpt><trkpt lat="43.3141756756501" lon="10.514999887966107"><ele>7.285714285714286</ele><time>2026-04-22T17:13:40Z</time></trkpt><trkpt lat="43.314173457087925" lon="10.515101013364657"><ele>7.571428571428571</ele><time>2026-04-22T17:13:46Z</time></trkpt><trkpt lat="43.314211460498804" lon="10.515186673254865"><ele>7.857142857142858</ele><time>2026-04-22T17:13:52Z</time></trkpt><trkpt lat="43.314271299364016" lon="10.515223121364901"><ele>8.142857142857142</ele><time>2026-04-22T17:13:56Z</time></trkpt><trkpt lat="43.31431787338125" lon="10.515306561299637"><ele>8.428571428571429</ele><time>2026-04-22T17:14:00Z</time></trkpt><trkpt lat="43.314303910574424" lon="10.515397669001242"><ele>8.714285714285715</ele><time>2026-04-22T17:14:04Z</time></trkpt><trkpt lat="43.31427157101447" lon="10.515474929415898"><ele>9.0</ele><time>2026-04-22T17:14:08Z</time></trkpt><trkpt lat="43.31424992702645" lon="10.515558993506735"><ele>9.571428571428573</ele><time>2026-04-22T17:14:11Z</time></trkpt><trkpt lat="43.314236413983636" lon="10.515648030719623"><ele>10.142857142857142</ele><time>2026-04-22T17:14:14Z</time></trkpt><trkpt lat="43.31422589868797" lon="10.515744352148408"><ele>10.714285714285715</ele><time>2026-04-22T17:14:17Z</time></trkpt><trkpt lat="43.314224698283155" lon="10.515854618179912"><ele>11.285714285714286</ele><time>2026-04-22T17:14:21Z</time></trkpt><trkpt lat="43.314230925301814" lon="10.515950418556574"><ele>11.857142857142858</ele><time>2026-04-22T17:14:25Z</time></trkpt><trkpt lat="43.314247962562234" lon="10.516046970751283"><ele>12.428571428571429</ele><time>2026-04-22T17:14:29Z</time></trkpt><trkpt lat="43.31426920869075" lon="10.516151888840145"><ele>13.0</ele><time>2026-04-22T17:14:33Z</time></trkpt><trkpt lat="43.31429922278513" lon="10.516259829277177"><ele>13.285714285714285</ele><time>2026-04-22T17:14:37Z</time></trkpt><trkpt lat="43.314337792418506" lon="10.516332620292522"><ele>13.571428571428573</ele><time>2026-04-22T17:14:40Z</time></trkpt><trkpt lat="43.314359261446455" lon="10.516433667175091"><ele>13.857142857142858</ele><time>2026-04-22T17:14:44Z</time></trkpt><trkpt lat="43.31437262138634" lon="10.516518475770628"><ele>14.142857142857142</ele><time>2026-04-22T17:14:48Z</time></trkpt><trkpt lat="43.31439384341305" lon="10.516608696862777"><ele>14.428571428571427</ele><time>2026-04-22T17:14:52Z</time></trkpt><trkpt lat="43.314417317548475" lon="10.516700952931467"><ele>14.714285714285715</ele><time>2026-04-22T17:14:56Z</time></trkpt><trkpt lat="43.31443659435848" lon="10.516790377686828"><ele>15.0</ele><time>2026-04-22T17:15:00Z</time></trkpt><trkpt lat="43.31446064847575" lon="10.51687278888655"><ele>15.0</ele><time>2026-04-22T17:15:04Z</time></trkpt><trkpt lat="43.31443172524343" lon="10.516951757251565"><ele>15.0</ele><time>2026-04-22T17:15:10Z</time></trkpt><trkpt lat="43.314383281901584" lon="10.517039677264396"><ele>15.0</ele><time>2026-04-22T17:15:15Z</time></trkpt><trkpt lat="43.31433966099686" lon="10.51710275118258"><ele>15.0</ele><time>2026-04-22T17:15:20Z</time></trkpt><trkpt lat="43.31433393911162" lon="10.517191617736954"><ele>15.0</ele><time>2026-04-22T17:15:25Z</time></trkpt><trkpt lat="43.31433785658421" lon="10.517282010379425"><ele>15.0</ele><time>2026-04-22T17:15:29Z</time></trkpt><trkpt lat="43.31435286864445" lon="10.517366448443106"><ele>15.0</ele><time>2026-04-22T17:15:33Z</time></trkpt><trkpt lat="43.314376309029214" lon="10.517457198399605"><ele>15.0</ele><time>2026-04-22T17:15:37Z</time></trkpt><trkpt lat="43.31439866254474" lon="10.517542196959878"><ele>15.0</ele><time>2026-04-22T17:15:41Z</time></trkpt><trkpt lat="43.314413854971924" lon="10.517631984957339"><ele>15.0</ele><time>2026-04-22T17:15:45Z</time></trkpt><trkpt lat="43.314417094489635" lon="10.517719647386286"><ele>15.0</ele><time>2026-04-22T17:15:49Z</time></trkpt><trkpt lat="43.314423121216805" lon="10.517806085487768"><ele>15.0</ele><time>2026-04-22T17:15:53Z</time></trkpt><trkpt lat="43.3144300354176" lon="10.517911590630503"><ele>15.0</ele><time>2026-04-22T17:15:58Z</time></trkpt><trkpt lat="43.31444830407455" lon="10.518003925720162"><ele>15.0</ele><time>2026-04-22T17:16:02Z</time></trkpt><trkpt lat="43.314488271613655" lon="10.518097164083239"><ele>15.0</ele><time>2026-04-22T17:16:06Z</time></trkpt><trkpt lat="43.314509429407515" lon="10.518204069495381"><ele>15.0</ele><time>2026-04-22T17:16:11Z</time></trkpt><trkpt lat="43.314538054006746" lon="10.518284886261078"><ele>15.0</ele><time>2026-04-22T17:16:15Z</time></trkpt><trkpt lat="43.314582134736845" lon="10.518375359351884"><ele>15.0</ele><time>2026-04-22T17:16:21Z</time></trkpt><trkpt lat="43.314623948818344" lon="10.518457452510686"><ele>15.0</ele><time>2026-04-22T17:16:25Z</time></trkpt><trkpt lat="43.314625874860674" lon="10.51854675578523"><ele>15.0</ele><time>2026-04-22T17:16:29Z</time></trkpt><trkpt lat="43.31465686749977" lon="10.518627320642715"><ele>15.0</ele><time>2026-04-22T17:16:33Z</time></trkpt><trkpt lat="43.31469218822438" lon="10.518709662301717"><ele>15.142857142857142</ele><time>2026-04-22T17:16:38Z</time></trkpt><trkpt lat="43.314727925029615" lon="10.51880468884232"><ele>15.285714285714285</ele><time>2026-04-22T17:16:43Z</time></trkpt><trkpt lat="43.31473437030858" lon="10.518897461243826"><ele>15.428571428571427</ele><time>2026-04-22T17:16:48Z</time></trkpt><trkpt lat="43.31476602682112" lon="10.518984707992033"><ele>15.571428571428571</ele><time>2026-04-22T17:16:52Z</time></trkpt><trkpt lat="43.31479026261561" lon="10.519069134122983"><ele>15.714285714285712</ele><time>2026-04-22T17:16:56Z</time></trkpt><trkpt lat="43.314810325737604" lon="10.519159229700408"><ele>15.857142857142856</ele><time>2026-04-22T17:17:00Z</time></trkpt><trkpt lat="43.31483463714533" lon="10.519239118915019"><ele>16.0</ele><time>2026-04-22T17:17:04Z</time></trkpt><trkpt lat="43.31486405972491" lon="10.5193278991778"><ele>16.428571428571427</ele><time>2026-04-22T17:17:08Z</time></trkpt><trkpt lat="43.31488912620899" lon="10.519423174231148"><ele>16.857142857142854</ele><time>2026-04-22T17:17:12Z</time></trkpt><trkpt lat="43.31491281487776" lon="10.519505386014549"><ele>17.285714285714285</ele><time>2026-04-22T17:17:17Z</time></trkpt><trkpt lat="43.31494889479527" lon="10.519598263098425"><ele>17.714285714285715</ele><time>2026-04-22T17:17:22Z</time></trkpt><trkpt lat="43.314979178826846" lon="10.519683135816454"><ele>18.142857142857146</ele><time>2026-04-22T17:17:26Z</time></trkpt><trkpt lat="43.3150042135272" lon="10.519772636620587"><ele>18.57142857142857</ele><time>2026-04-22T17:17:30Z</time></trkpt><trkpt lat="43.31503778338879" lon="10.519859416941124"><ele>19.0</ele><time>2026-04-22T17:17:35Z</time></trkpt><trkpt lat="43.315066608926514" lon="10.519953740523441"><ele>19.0</ele><time>2026-04-22T17:17:40Z</time></trkpt><trkpt lat="43.31510138179333" lon="10.520030343535591"><ele>19.0</ele><time>2026-04-22T17:17:45Z</time></trkpt><trkpt lat="43.315119713030846" lon="10.520116734112957"><ele>19.0</ele><time>2026-04-22T17:17:49Z</time></trkpt><trkpt lat="43.31515101640066" lon="10.520197288540393"><ele>19.0</ele><time>2026-04-22T17:17:53Z</time></trkpt><trkpt lat="43.31518225860111" lon="10.520274617974874"><ele>19.0</ele><time>2026-04-22T17:17:57Z</time></trkpt><trkpt lat="43.31521482924164" lon="10.520368168341907"><ele>19.0</ele><time>2026-04-22T17:18:02Z</time></trkpt><trkpt lat="43.31524895338358" lon="10.520457061712268"><ele>19.0</ele><time>2026-04-22T17:18:06Z</time></trkpt><trkpt lat="43.315247269674416" lon="10.52055110836468"><ele>18.428571428571427</ele><time>2026-04-22T17:18:11Z</time></trkpt><trkpt lat="43.31517797584913" lon="10.520589648021181"><ele>17.857142857142858</ele><time>2026-04-22T17:18:15Z</time></trkpt><trkpt lat="43.31510915282807" lon="10.520610053094801"><ele>17.285714285714285</ele><time>2026-04-22T17:18:19Z</time></trkpt><trkpt lat="43.31503706043723" lon="10.520630931052914"><ele>16.714285714285715</ele><time>2026-04-22T17:18:23Z</time></trkpt><trkpt lat="43.314966496359325" lon="10.520646188307419"><ele>16.142857142857142</ele><time>2026-04-22T17:18:27Z</time></trkpt><trkpt lat="43.314898245575144" lon="10.520666916002089"><ele>15.571428571428573</ele><time>2026-04-22T17:18:32Z</time></trkpt><trkpt lat="43.314833075089524" lon="10.520685998114283"><ele>15.0</ele><time>2026-04-22T17:18:36Z</time></trkpt><trkpt lat="43.31476890400848" lon="10.520667068729805"><ele>15.285714285714286</ele><time>2026-04-22T17:18:39Z</time></trkpt><trkpt lat="43.314701956220354" lon="10.52064562009832"><ele>15.57142857142857</ele><time>2026-04-22T17:18:42Z</time></trkpt><trkpt lat="43.314641040012404" lon="10.520620905998218"><ele>15.857142857142856</ele><time>2026-04-22T17:18:45Z</time></trkpt><trkpt lat="43.31457558222418" lon="10.520637541150801"><ele>16.142857142857142</ele><time>2026-04-22T17:18:48Z</time></trkpt><trkpt lat="43.31450005746692" lon="10.520655063426698"><ele>16.428571428571427</ele><time>2026-04-22T17:18:52Z</time></trkpt><trkpt lat="43.314426045819744" lon="10.52067210319045"><ele>16.71428571428571</ele><time>2026-04-22T17:18:56Z</time></trkpt><trkpt lat="43.31435077241176" lon="10.52069523398856"><ele>17.0</ele><time>2026-04-22T17:19:01Z</time></trkpt><trkpt lat="43.31427826358652" lon="10.52072037761645"><ele>16.999999999999996</ele><time>2026-04-22T17:19:06Z</time></trkpt><trkpt lat="43.31420836603191" lon="10.52076168839335"><ele>17.0</ele><time>2026-04-22T17:19:11Z</time></trkpt><trkpt lat="43.31413765211168" lon="10.520801674045646"><ele>17.0</ele><time>2026-04-22T17:19:16Z</time></trkpt><trkpt lat="43.314074604631706" lon="10.520825075134525"><ele>17.0</ele><time>2026-04-22T17:19:20Z</time></trkpt><trkpt lat="43.314016596527054" lon="10.520858856699816"><ele>17.0</ele><time>2026-04-22T17:19:24Z</time></trkpt><trkpt lat="43.313955710415605" lon="10.520887072382502"><ele>16.999999999999996</ele><time>2026-04-22T17:19:28Z</time></trkpt><trkpt lat="43.31389623363274" lon="10.52093273881684"><ele>17.0</ele><time>2026-04-22T17:19:32Z</time></trkpt><trkpt lat="43.31385022230964" lon="10.520994204873846"><ele>17.285714285714285</ele><time>2026-04-22T17:19:36Z</time></trkpt><trkpt lat="43.31380546325932" lon="10.521058547910007"><ele>17.57142857142857</ele><time>2026-04-22T17:19:40Z</time></trkpt><trkpt lat="43.3137614142492" lon="10.52112480538095"><ele>17.857142857142854</ele><time>2026-04-22T17:19:44Z</time></trkpt><trkpt lat="43.31372525143145" lon="10.521200336481963"><ele>18.142857142857142</ele><time>2026-04-22T17:19:48Z</time></trkpt><trkpt lat="43.3136878424002" lon="10.521270060892611"><ele>18.42857142857143</ele><time>2026-04-22T17:19:52Z</time></trkpt><trkpt lat="43.31364473672937" lon="10.521348867095002"><ele>18.71428571428571</ele><time>2026-04-22T17:19:57Z</time></trkpt><trkpt lat="43.313607477011125" lon="10.52143575649358"><ele>19.0</ele><time>2026-04-22T17:20:02Z</time></trkpt><trkpt lat="43.313557508539816" lon="10.521509891793466"><ele>19.0</ele><time>2026-04-22T17:20:08Z</time></trkpt><trkpt lat="43.31353636124221" lon="10.521604023726791"><ele>19.0</ele><time>2026-04-22T17:20:12Z</time></trkpt><trkpt lat="43.31351194831744" lon="10.521685981434251"><ele>19.0</ele><time>2026-04-22T17:20:16Z</time></trkpt><trkpt lat="43.313478716165584" lon="10.521788205565182"><ele>19.0</ele><time>2026-04-22T17:20:23Z</time></trkpt><trkpt lat="43.313451246508514" lon="10.52187515682675"><ele>19.0</ele><time>2026-04-22T17:20:27Z</time></trkpt><trkpt lat="43.313388891500196" lon="10.52193755537335"><ele>19.0</ele><time>2026-04-22T17:20:34Z</time></trkpt><trkpt lat="43.313342738788705" lon="10.522007745667148"><ele>19.0</ele><time>2026-04-22T17:20:37Z</time></trkpt><trkpt lat="43.313280051916614" lon="10.522052199865934"><ele>18.857142857142858</ele><time>2026-04-22T17:20:41Z</time></trkpt><trkpt lat="43.31320466644409" lon="10.522086556591734"><ele>18.714285714285715</ele><time>2026-04-22T17:20:46Z</time></trkpt><trkpt lat="43.31316221244846" lon="10.522150527807012"><ele>18.571428571428573</ele><time>2026-04-22T17:20:49Z</time></trkpt><trkpt lat="43.31309481540615" lon="10.52220228358594"><ele>18.42857142857143</ele><time>2026-04-22T17:20:54Z</time></trkpt><trkpt lat="43.31302832582507" lon="10.522227267624544"><ele>18.285714285714285</ele><time>2026-04-22T17:21:00Z</time></trkpt><trkpt lat="43.312961540665235" lon="10.522191297559166"><ele>18.142857142857146</ele><time>2026-04-22T17:21:04Z</time></trkpt><trkpt lat="43.31289728860983" lon="10.522208350557603"><ele>18.0</ele><time>2026-04-22T17:21:09Z</time></trkpt><trkpt lat="43.312833214856354" lon="10.522266260150307"><ele>18.28571428571429</ele><time>2026-04-22T17:21:13Z</time></trkpt><trkpt lat="43.31279399420518" lon="10.522343793096669"><ele>18.571428571428573</ele><time>2026-04-22T17:21:17Z</time></trkpt><trkpt lat="43.31274008673489" lon="10.52241602814418"><ele>18.857142857142858</ele><time>2026-04-22T17:21:21Z</time></trkpt><trkpt lat="43.3126780259833" lon="10.522454139088806"><ele>19.142857142857146</ele><time>2026-04-22T17:21:25Z</time></trkpt><trkpt lat="43.31261485121908" lon="10.522504561795749"><ele>19.42857142857143</ele><time>2026-04-22T17:21:29Z</time></trkpt><trkpt lat="43.31254307244385" lon="10.52249221867975"><ele>19.714285714285715</ele><time>2026-04-22T17:21:34Z</time></trkpt><trkpt lat="43.31246603747507" lon="10.522529422866157"><ele>20.0</ele><time>2026-04-22T17:21:39Z</time></trkpt><trkpt lat="43.312403114242365" lon="10.522587231076498"><ele>20.0</ele><time>2026-04-22T17:21:43Z</time></trkpt><trkpt lat="43.312352966174686" lon="10.522640948847364"><ele>20.0</ele><time>2026-04-22T17:21:48Z</time></trkpt><trkpt lat="43.31233561557587" lon="10.522731840703631"><ele>20.0</ele><time>2026-04-22T17:21:52Z</time></trkpt><trkpt lat="43.31230322725723" lon="10.522811621106335"><ele>20.0</ele><time>2026-04-22T17:21:58Z</time></trkpt><trkpt lat="43.31223461831786" lon="10.522841483110609"><ele>20.0</ele><time>2026-04-22T17:22:04Z</time></trkpt><trkpt lat="43.31216480412198" lon="10.522841545156592"><ele>20.0</ele><time>2026-04-22T17:22:09Z</time></trkpt><trkpt lat="43.312092633014345" lon="10.522875246699378"><ele>20.0</ele><time>2026-04-22T17:22:13Z</time></trkpt><trkpt lat="43.31204182492872" lon="10.522927678602553"><ele>19.714285714285715</ele><time>2026-04-22T17:22:18Z</time></trkpt><trkpt lat="43.31196851751464" lon="10.522921933836693"><ele>19.42857142857143</ele><time>2026-04-22T17:22:23Z</time></trkpt><trkpt lat="43.311890007382345" lon="10.522939708027348"><ele>19.142857142857146</ele><time>2026-04-22T17:22:27Z</time></trkpt><trkpt lat="43.31182363039194" lon="10.522963452710094"><ele>18.857142857142858</ele><time>2026-04-22T17:22:31Z</time></trkpt><trkpt lat="43.31174803497322" lon="10.52296357538993"><ele>18.571428571428573</ele><time>2026-04-22T17:22:35Z</time></trkpt><trkpt lat="43.31169243290687" lon="10.523008370988403"><ele>18.28571428571429</ele><time>2026-04-22T17:22:39Z</time></trkpt><trkpt lat="43.311619349579914" lon="10.523014558363009"><ele>18.0</ele><time>2026-04-22T17:22:44Z</time></trkpt><trkpt lat="43.31155565444036" lon="10.523058415493237"><ele>18.0</ele><time>2026-04-22T17:22:50Z</time></trkpt><trkpt lat="43.3114942289723" lon="10.523114588579586"><ele>18.0</ele><time>2026-04-22T17:22:55Z</time></trkpt><trkpt lat="43.31143523033902" lon="10.523151771373717"><ele>18.0</ele><time>2026-04-22T17:22:59Z</time></trkpt><trkpt lat="43.31135339966709" lon="10.523176361891181"><ele>15.0</ele><time>2026-04-22T17:23:23Z</time></trkpt></trkseg></trk></gpx>